Laatste waarneming: 00:31
Temperatuur:20,2°C
Dauwpunt:17,4°C
Rel. vocht:84,2%
Natte-bol:19,4°C
Wind (gem. 10 min.):3,6 m/s
Wind (max. 10 min.): m/s
Windrichting:328°
Neerslagsom:0,0 mm
Neerslagintensiteit:0,0 mm/u
Luchtdruk:1015,1 hPa
Straling:0,0 W/m2
 
Maximumtemp.:20,4°C (00:11)
Minimumtemp.:20,2°C (00:05)
Hoogste windstoot:- m/s (22:02)


Bekijk de verwachting.

Bekijk het Tabeloverzicht.
Bekijk het Maandoverzicht.
Dagtabel
Tijd Temp. Dauwp. Natte-bol Rel. Hum. Windsnelh. Windricht. Windstoot Neerslag Straling Luchtdruk
 
00:31 20,2 17,4 19,4 84,2 3,6 328 - 0,0 0 1.015,1
00:30 20,2 17,4 19,4 84,1 3,6 329 - 0,0 0 1.015,1
00:29 20,2 17,3 19,3 83,6 3,6 329 - 0,0 0 1.015,0
00:28 20,2 17,2 19,2 82,7 3,6 329 - 0,0 0 1.015,0
00:27 20,2 17,3 19,3 83,6 3,6 330 - 0,0 0 1.015,0
00:26 20,3 17,4 19,4 83,6 3,4 330 - 0,0 0 1.015,1
00:25 20,3 17,4 19,4 83,6 3,5 332 - 0,0 0 1.015,0
00:24 20,2 17,3 19,3 83,6 3,7 333 - 0,0 0 1.015,0
00:23 20,3 17,4 19,4 83,6 3,7 333 - 0,0 0 1.015,0
00:22 20,3 17,4 19,4 83,6 3,8 334 - 0,0 0 1.015,0
00:21 20,3 17,4 19,4 83,6 4,0 336 - 0,0 0 1.015,0
00:20 20,3 17,4 19,4 83,6 4,1 336 - 0,0 0 1.015,0
00:19 20,3 17,4 19,4 83,6 4,0 336 - 0,0 0 1.014,9
00:18 20,3 17,4 19,4 83,6 3,8 335 - 0,0 0 1.014,9
00:17 20,3 17,4 19,4 83,6 3,7 336 - 0,0 0 1.015,0
00:16 20,3 17,4 19,4 83,6 3,6 338 - 0,0 0 1.015,0
00:15 20,3 17,4 19,4 83,6 3,6 338 - 0,0 0 1.014,9
00:14 20,4 17,5 19,5 83,6 3,6 336 - 0,0 0 1.014,9
00:13 20,4 17,5 19,5 83,6 3,4 334 - 0,0 0 1.014,9
00:12 20,4 17,5 19,5 83,6 3,2 329 - 0,0 0 1.014,9
00:11 20,4 17,5 19,5 83,6 3,2 324 - 0,0 0 1.014,9
00:10 20,3 17,0 19,1 81,4 3,1 318 - 0,0 0 1.014,9
00:09 20,3 17,0 19,1 81,3 3,3 313 - 0,0 0 1.014,9
00:08 20,3 17,1 19,1 81,7 3,4 309 - 0,0 0 1.014,9
00:07 20,3 17,1 19,2 81,9 3,4 307 - 0,0 0 1.014,8
00:06 20,2 16,8 18,9 80,6 3,3 305 - 0,0 0 1.014,8
00:05 20,2 16,8 18,9 81,0 3,4 306 - 0,0 0 1.014,8
00:04 20,3 17,2 19,3 82,5 3,6 308 - 0,0 0 1.014,8
00:03 20,3 17,4 19,4 83,4 3,6 309 - 0,0 0 1.014,8
00:02 20,3 17,3 19,3 82,9 3,6 311 - 0,0 0 1.014,9
00:01 20,3 17,3 19,3 83,0 3,7 312 - 0,0 0 1.014,9
00:00 20,3 17,2 19,3 82,4 3,9 312 - 0,0 0 1.014,8
 
23:59 20,3 17,2 19,3 82,5 3,9 311 - 0,2 0 1.014,8
23:58 20,3 17,4 19,4 83,6 3,8 310 - 0,2 0 1.014,8
23:57 20,3 17,5 19,5 83,9 3,7 311 - 0,2 0 1.014,8
23:56 20,3 17,7 19,6 84,8 3,6 313 - 0,2 0 1.014,8
23:55 20,3 17,7 19,6 84,8 3,5 314 - 0,2 0 1.014,8
23:54 20,3 17,5 19,5 83,9 3,4 314 - 0,2 0 1.014,8
23:53 20,3 17,4 19,4 83,6 3,4 315 - 0,2 0 1.014,8
23:52 20,3 17,6 19,6 84,5 3,4 315 - 0,2 0 1.014,8
23:51 20,3 17,4 19,4 83,6 3,3 314 - 0,2 0 1.014,8
23:50 20,3 17,4 19,4 83,6 3,4 313 - 0,2 0 1.014,8
23:49 20,3 17,4 19,4 83,6 3,6 312 - 0,2 0 1.014,8
23:48 20,3 17,4 19,4 83,6 3,5 312 - 0,2 0 1.014,9
23:47 20,3 17,4 19,4 83,6 3,5 312 - 0,2 0 1.014,9
23:46 20,3 17,4 19,4 83,5 3,5 311 - 0,2 0 1.014,9
23:45 20,3 17,3 19,3 82,8 3,6 312 - 0,2 0 1.014,9
23:44 20,3 17,4 19,4 83,6 3,7 312 - 0,2 0 1.014,9
23:42 20,4 17,6 19,6 83,8 3,8 311 - 0,2 0 1.014,9
23:41 20,4 17,7 19,7 84,5 3,8 309 - 0,2 0 1.014,9
23:40 20,4 17,5 19,5 83,6 3,7 309 - 0,2 0 1.014,9
23:39 20,4 17,5 19,5 83,6 3,7 308 - 0,2 0 1.014,9
23:38 20,4 17,6 19,6 84,2 3,7 308 - 0,2 0 1.014,9
23:37 20,4 17,7 19,7 84,8 3,5 307 - 0,2 0 1.014,9
23:36 20,4 17,7 19,7 84,8 3,4 306 - 0,2 0 1.014,9
23:35 20,3 17,5 19,5 83,8 3,3 307 - 0,2 0 1.014,9
23:34 20,3 17,7 19,6 84,8 3,4 308 - 0,2 0 1.014,9
23:33 20,4 17,7 19,7 84,8 3,2 308 - 0,2 0 1.014,9
23:32 20,3 17,7 19,6 84,8 3,1 310 - 0,2 0 1.014,9
23:31 20,3 17,7 19,6 84,8 3,0 312 - 0,2 0 1.014,9
23:30 20,3 17,7 19,6 84,8 3,0 314 - 0,2 0 1.014,9
23:29 20,4 17,7 19,7 84,8 3,0 315 - 0,2 0 1.014,9
23:28 20,4 17,7 19,7 84,8 3,1 315 - 0,2 0 1.014,9
23:27 20,4 17,8 19,8 85,2 3,1 314 - 0,2 0 1.014,9
23:26 20,4 17,9 19,8 85,4 2,9 313 - 0,2 0 1.014,9
23:25 20,4 17,7 19,7 84,8 2,9 310 - 0,2 0 1.014,9
23:24 20,4 17,7 19,7 84,8 3,0 306 - 0,2 0 1.015,0
23:23 20,4 17,8 19,7 84,9 3,1 303 - 0,2 0 1.015,0
23:22 20,4 18,0 19,9 85,9 3,1 304 - 0,2 0 1.015,0
23:21 20,5 18,1 20,0 85,9 3,4 305 - 0,2 0 1.015,0
23:20 20,5 18,1 20,0 85,9 3,4 306 - 0,2 0 1.014,9
23:19 20,5 17,9 19,9 85,1 3,6 308 - 0,2 0 1.015,0
23:18 20,4 17,7 19,7 84,8 3,5 310 - 0,2 0 1.014,9
23:17 20,5 18,1 20,0 85,9 3,7 312 - 0,2 0 1.015,0
23:16 20,5 18,1 20,0 85,9 3,8 310 - 0,2 0 1.015,0
23:15 20,6 18,0 20,0 85,2 3,7 308 - 0,2 0 1.015,0
23:14 20,6 17,9 19,9 84,8 3,8 309 - 0,2 0 1.015,0
23:13 20,6 17,9 19,9 84,8 4,2 310 - 0,2 0 1.015,0
23:12 20,7 18,2 20,2 85,8 4,3 310 - 0,2 0 1.015,0
23:11 20,6 18,1 20,1 85,8 4,3 308 - 0,2 0 1.015,0
23:10 20,6 17,9 19,9 84,8 4,2 307 - 0,2 0 1.015,0
23:09 20,6 17,9 19,9 84,3 4,4 306 - 0,2 0 1.015,0
23:08 20,5 17,6 19,6 83,6 4,7 305 - 0,2 0 1.015,0
23:07 20,6 17,7 19,7 83,6 5,0 304 - 0,2 0 1.014,9
23:06 20,6 17,7 19,7 83,6 4,9 306 - 0,2 0 1.014,9
23:05 20,6 17,9 19,9 84,5 4,5 307 - 0,2 0 1.014,9
23:04 20,6 17,7 19,7 83,6 4,4 307 - 0,2 0 1.014,9
23:03 20,6 17,7 19,7 83,6 4,3 305 - 0,2 0 1.014,9
23:02 20,6 17,7 19,7 83,6 4,4 301 - 0,2 0 1.014,9
23:01 20,7 17,8 19,8 83,6 4,3 298 - 0,2 0 1.014,9
23:00 20,7 17,8 19,8 83,6 4,5 296 - 0,2 0 1.014,9
 
22:59 20,7 17,8 19,8 83,4 4,9 296 - 0,2 0 1.014,9
22:58 20,7 17,7 19,7 82,9 5,3 297 - 0,2 0 1.014,8
22:57 20,8 17,9 20,0 83,6 5,2 300 - 0,2 0 1.014,8
22:56 20,8 17,9 20,0 83,6 5,2 303 - 0,2 0 1.014,8
22:55 20,8 17,8 19,8 82,8 5,1 304 - 0,2 0 1.014,8
22:54 20,8 17,9 19,9 83,5 5,0 304 - 0,2 0 1.014,8
22:53 20,8 17,9 20,0 83,6 5,0 303 - 0,2 0 1.014,8
22:52 20,8 18,0 20,0 84,1 4,9 301 - 0,2 0 1.014,8
22:51 20,8 17,9 20,0 83,6 4,9 299 - 0,2 0 1.014,8
22:50 20,8 17,7 19,8 82,4 5,1 298 - 0,2 0 1.014,8
22:49 20,8 17,7 19,8 82,4 5,3 298 - 0,2 0 1.014,8
22:48 20,8 17,7 19,8 82,5 5,0 298 - 0,2 0 1.014,8
22:47 20,8 17,9 20,0 83,6 4,7 298 - 0,2 0 1.014,8
22:46 20,8 17,9 19,9 83,2 4,6 300 - 0,2 0 1.014,8
22:45 20,8 17,7 19,8 82,4 4,6 301 - 0,2 0 1.014,8
22:44 20,8 17,7 19,8 82,4 4,7 301 - 0,2 0 1.014,8
22:43 20,8 17,5 19,6 81,5 4,9 300 - 0,2 0 1.014,8
22:42 20,8 17,7 19,8 82,4 4,9 300 - 0,2 0 1.014,7
22:41 20,8 17,7 19,8 82,4 4,8 299 - 0,2 0 1.014,7
22:40 20,8 17,7 19,8 82,4 4,5 299 - 0,2 0 1.014,8
22:39 20,8 17,7 19,8 82,4 4,4 298 - 0,2 0 1.014,8
22:38 20,8 17,5 19,6 81,6 4,5 298 - 0,2 0 1.014,7
22:37 20,8 17,7 19,7 82,3 4,6 298 - 0,2 0 1.014,7
22:36 20,8 17,7 19,8 82,4 4,4 299 - 0,2 0 1.014,7
22:35 20,8 17,7 19,8 82,4 4,4 300 - 0,2 0 1.014,8
22:34 20,9 17,8 19,9 82,4 4,6 300 - 0,2 0 1.014,8
22:33 20,9 17,8 19,9 82,4 4,7 301 - 0,2 0 1.014,8
22:32 20,9 17,8 19,9 82,4 4,8 300 - 0,2 0 1.014,8
22:31 20,8 17,5 19,6 81,5 5,1 298 - 0,2 0 1.014,7
22:30 20,8 17,5 19,6 81,5 5,4 297 - 0,2 0 1.014,8
22:29 20,9 17,9 19,9 82,8 5,6 295 - 0,2 0 1.014,7
22:28 20,9 17,9 20,0 83,1 5,4 293 - 0,2 0 1.014,8
22:27 20,9 17,8 19,9 82,4 5,4 291 - 0,2 0 1.014,8
22:26 20,9 17,6 19,7 81,6 5,8 289 - 0,2 0 1.014,8
22:25 20,8 17,5 19,6 81,3 6,1 288 - 0,2 0 1.014,7
22:24 20,9 17,4 19,6 80,5 6,4 288 - 0,2 0 1.014,7
22:23 20,9 17,6 19,7 81,3 6,5 289 - 0,2 0 1.014,7
22:22 20,9 17,6 19,7 81,3 6,3 291 - 0,2 0 1.014,7
22:21 20,9 17,6 19,7 81,3 6,2 291 - 0,2 0 1.014,7
22:20 20,9 17,8 19,8 82,2 6,3 291 - 0,2 0 1.014,7
22:19 20,9 17,8 19,9 82,5 6,6 290 - 0,2 0 1.014,7
22:18 20,9 18,0 20,0 83,4 6,6 288 - 0,2 0 1.014,7
22:17 20,9 17,7 19,8 82,1 7,2 285 - 0,2 0 1.014,7
22:16 20,9 17,7 19,8 81,9 7,7 283 - 0,2 0 1.014,7
22:15 20,9 17,8 19,9 82,4 7,8 282 - 0,2 0 1.014,6
22:14 20,9 17,8 19,9 82,4 7,5 283 - 0,2 0 1.014,6
22:13 20,9 17,8 19,9 82,4 7,2 285 - 0,2 0 1.014,6
22:12 20,9 17,6 19,7 81,3 7,4 285 - 0,2 0 1.014,6
22:11 20,9 17,7 19,8 82,1 7,4 284 - 0,2 0 1.014,5
22:10 21,0 18,0 20,1 83,0 7,5 283 - 0,2 0 1.014,5
22:08 20,9 17,8 19,9 82,4 7,9 281 - 0,2 0 1.014,5
22:07 21,0 18,1 20,2 83,7 8,3 279 - 0,2 0 1.014,5
22:06 21,0 18,3 20,3 84,5 8,1 277 - 0,2 0 1.014,5
22:05 20,9 18,0 20,1 83,6 8,3 276 - 0,2 0 1.014,4
22:04 20,9 18,0 20,1 83,6 8,8 277 - 0,2 0 1.014,4
22:03 20,9 17,9 19,9 82,9 9,2 277 - 0,2 0 1.014,4
22:02 21,0 18,1 20,1 83,4 8,9 278 - 0,2 0 1.014,4
22:01 21,0 18,2 20,2 83,8 8,6 278 - 0,2 0 1.014,5
22:00 21,0 18,2 20,3 84,3 8,3 278 - 0,2 0 1.014,5
 
21:59 21,0 18,1 20,2 83,6 8,4 278 - 0,2 0 1.014,5
21:58 21,0 18,1 20,2 83,6 8,5 278 - 0,2 0 1.014,5
21:57 21,1 18,2 20,3 83,6 8,5 278 - 0,2 0 1.014,5
21:56 21,1 18,2 20,3 83,6 8,1 278 - 0,2 0 1.014,5
21:55 21,1 18,2 20,3 83,6 8,0 278 - 0,2 0 1.014,5
21:54 21,1 18,2 20,2 83,4 8,1 280 - 0,2 0 1.014,5
21:53 21,1 18,2 20,2 83,4 7,9 281 - 0,2 0 1.014,6
21:52 21,2 18,3 20,3 83,5 7,6 281 - 0,2 0 1.014,5
21:51 21,1 18,2 20,2 83,4 7,7 281 - 0,2 0 1.014,5
21:50 21,2 18,5 20,5 84,4 7,9 281 - 0,2 0 1.014,5
21:49 21,2 18,3 20,4 83,7 8,3 280 - 0,2 0 1.014,6
21:48 21,2 18,2 20,3 83,2 8,4 277 - 0,2 0 1.014,6
21:47 21,1 18,0 20,1 82,4 8,3 276 - 0,2 0 1.014,6
21:46 21,2 18,1 20,2 82,4 8,3 275 - 0,2 0 1.014,6
21:45 21,2 18,1 20,2 82,4 8,5 275 - 0,2 0 1.014,5
21:44 21,3 18,2 20,3 82,4 8,3 276 - 0,2 0 1.014,6
21:43 21,2 17,9 20,0 81,4 8,0 278 - 0,2 0 1.014,6
21:42 21,2 17,9 20,1 81,6 7,7 279 - 0,2 0 1.014,6
21:41 21,3 18,2 20,3 82,4 7,8 279 - 0,2 0 1.014,6
21:40 21,3 18,1 20,2 81,7 7,6 279 - 0,2 0 1.014,5
21:39 21,3 18,1 20,2 82,2 7,5 279 - 0,2 0 1.014,5
21:38 21,3 18,2 20,3 82,4 7,4 279 - 0,2 0 1.014,5
21:37 21,3 18,2 20,3 82,4 7,1 280 - 0,2 0 1.014,6
21:36 21,4 18,3 20,4 82,4 6,8 281 - 0,2 0 1.014,6
21:35 21,3 18,0 20,1 81,4 6,6 282 - 0,2 0 1.014,6
21:34 21,3 17,9 20,0 80,8 6,7 282 - 0,2 0 1.014,6
21:33 21,3 18,0 20,1 81,3 6,7 282 - 0,2 0 1.014,5
21:32 21,3 18,0 20,1 81,4 6,9 280 - 0,2 0 1.014,5
21:31 21,4 18,3 20,4 82,4 7,0 278 - 0,2 0 1.014,5
21:30 21,4 18,3 20,4 82,4 6,7 277 - 0,2 0 1.014,5
21:29 21,4 18,2 20,3 81,9 6,5 279 - 0,2 0 1.014,5
21:28 21,4 18,1 20,2 81,3 6,4 281 - 0,2 0 1.014,5
21:27 21,4 18,2 20,3 82,2 6,4 283 - 0,2 0 1.014,5
21:26 21,4 18,1 20,2 81,4 6,2 284 - 0,2 0 1.014,5
21:25 21,5 18,2 20,3 81,5 6,0 285 - 0,2 0 1.014,5
21:24 21,5 18,4 20,5 82,4 5,8 284 - 0,2 0 1.014,5
21:23 21,5 18,4 20,5 82,4 5,6 284 - 0,2 0 1.014,6
21:22 21,6 18,6 20,7 83,2 5,4 284 - 0,2 0 1.014,6
21:21 21,5 18,2 20,4 81,7 5,5 285 - 0,2 0 1.014,6
21:20 21,5 18,4 20,5 82,4 5,5 288 - 0,2 0 1.014,6
21:19 21,5 18,3 20,5 82,2 5,4 290 - 0,2 0 1.014,5
21:18 21,4 18,0 20,1 80,8 5,5 292 - 0,2 0 1.014,5
21:17 21,5 18,1 20,2 80,8 5,7 292 - 0,2 0 1.014,5
21:16 21,5 18,0 20,2 80,5 5,4 291 - 0,2 0 1.014,5
21:15 21,5 17,9 20,1 80,1 5,1 291 - 0,2 0 1.014,5
21:14 21,5 18,0 20,2 80,4 5,2 292 - 0,2 0 1.014,4
21:13 21,5 18,3 20,5 82,2 5,4 293 - 0,2 0 1.014,4
21:12 21,5 18,1 20,2 80,8 5,2 294 - 0,2 0 1.014,4
21:11 21,5 17,9 20,1 80,1 5,2 294 - 0,2 0 1.014,4
21:10 21,5 18,1 20,2 80,9 5,1 295 - 0,2 0 1.014,4
21:09 21,5 18,0 20,2 80,4 5,0 295 - 0,2 0 1.014,4
21:08 21,5 17,9 20,1 80,1 5,1 293 - 0,2 0 1.014,3
21:07 21,5 17,9 20,1 79,8 5,4 292 - 0,2 0 1.014,3
21:06 21,5 17,7 19,9 79,0 5,7 291 - 0,2 0 1.014,3
21:05 21,5 17,7 19,9 79,0 5,7 290 - 0,2 0 1.014,3
21:04 21,6 18,0 20,2 79,8 5,4 288 - 0,2 0 1.014,3
21:03 21,5 17,7 19,9 79,0 5,2 287 - 0,2 2 1.014,3
21:02 21,5 17,7 19,9 79,0 5,3 286 - 0,2 5 1.014,3
21:01 21,5 17,8 20,0 79,3 5,4 286 - 0,2 5 1.014,3
21:00 21,6 18,0 20,2 80,1 5,2 287 - 0,2 5 1.014,3
 
20:59 21,6 17,9 20,1 79,3 5,2 288 - 0,2 5 1.014,2
20:58 21,6 18,0 20,2 79,9 5,1 289 - 0,2 5 1.014,2
20:57 21,6 17,8 20,1 79,2 5,2 288 - 0,2 5 1.014,2
20:56 21,7 18,1 20,3 79,9 5,4 286 - 0,2 5 1.014,1
20:55 21,6 17,7 20,0 78,7 5,9 283 - 0,2 5 1.014,1
20:54 21,6 17,6 19,8 77,9 6,1 281 - 0,2 5 1.014,1
20:53 21,7 17,8 20,1 78,5 6,1 279 - 0,2 5 1.014,1
20:52 21,6 17,6 19,9 78,2 5,8 280 - 0,2 8 1.014,1
20:51 21,6 17,4 19,7 77,0 5,6 282 - 0,2 10 1.014,1
20:50 21,7 17,9 20,1 78,8 5,5 284 - 0,2 12 1.014,1
20:49 21,6 17,7 19,9 78,3 5,4 286 - 0,2 15 1.014,0
20:48 21,7 18,0 20,2 79,6 5,5 287 - 0,2 18 1.014,0
20:47 21,7 18,1 20,3 80,1 5,7 285 - 0,2 21 1.014,0
20:46 21,7 18,1 20,3 80,1 5,9 282 - 0,2 23 1.014,0
20:45 21,6 17,8 20,1 79,1 6,0 280 - 0,2 22 1.014,0
20:44 21,6 17,8 20,0 79,0 5,9 278 - 0,2 19 1.014,0
20:43 21,6 17,8 20,0 79,0 5,7 277 - 0,2 17 1.014,0
20:42 21,7 18,0 20,2 79,6 5,5 278 - 0,2 14 1.014,0
20:41 21,7 18,1 20,3 80,1 5,2 281 - 0,2 12 1.014,0
20:40 21,7 18,3 20,5 81,0 4,8 286 - 0,2 12 1.014,0
20:39 21,7 18,4 20,5 81,3 4,6 289 - 0,2 12 1.014,0
20:38 21,7 18,3 20,5 81,0 4,8 292 - 0,2 12 1.014,0
20:37 21,7 18,1 20,3 80,1 5,0 293 - 0,2 12 1.014,0
20:36 21,8 18,5 20,6 81,4 4,9 291 - 0,2 14 1.014,0
20:35 21,7 18,3 20,4 80,8 4,7 289 - 0,2 19 1.014,0
20:34 21,7 18,3 20,5 81,2 4,7 288 - 0,2 22 1.014,0
20:33 21,7 18,2 20,4 80,5 5,2 288 - 0,2 24 1.014,0
20:32 21,7 18,4 20,6 81,7 5,4 287 - 0,2 25 1.014,0
20:31 21,7 18,1 20,3 80,1 5,9 286 - 0,2 24 1.014,0
20:30 21,7 18,3 20,4 80,8 6,0 286 - 0,2 19 1.014,0
20:29 21,8 18,4 20,6 81,3 5,9 286 - 0,2 19 1.014,0
20:28 21,7 18,6 20,7 82,3 5,7 285 - 0,2 19 1.014,0
20:27 21,7 18,3 20,5 81,2 5,7 283 - 0,2 16 1.014,0
20:26 21,7 18,2 20,4 80,5 5,8 282 - 0,2 13 1.014,0
20:25 21,7 18,4 20,5 81,3 6,0 282 - 0,2 11 1.014,0
20:24 21,7 18,4 20,5 81,3 6,0 282 - 0,2 9 1.014,0
20:23 21,7 18,4 20,5 81,3 6,0 281 - 0,2 7 1.014,0
20:22 21,7 18,4 20,5 81,3 5,9 281 - 0,2 6 1.013,9
20:21 21,7 18,2 20,4 80,4 5,8 281 - 0,2 5 1.014,0
20:20 21,7 18,4 20,5 81,3 5,6 283 - 0,2 5 1.014,0
20:19 21,7 18,4 20,5 81,3 5,5 286 - 0,2 5 1.013,9
20:18 21,7 18,4 20,5 81,3 5,6 291 - 0,2 5 1.013,9
20:17 21,8 18,6 20,8 82,2 5,4 295 - 0,2 6 1.013,9
20:16 21,7 18,4 20,5 81,4 4,9 297 - 0,2 7 1.013,9
20:15 21,7 18,2 20,4 80,4 4,8 298 - 0,2 8 1.014,0
20:14 21,8 18,4 20,6 81,3 5,0 298 - 0,2 10 1.013,9
20:13 21,8 18,4 20,6 81,3 5,4 296 - 0,2 11 1.013,9
20:12 21,8 18,3 20,5 80,6 5,3 292 - 0,2 11 1.013,9
20:11 21,8 18,4 20,6 81,0 5,3 287 - 0,2 11 1.014,0
20:10 21,8 18,4 20,6 81,3 5,2 285 - 0,2 11 1.013,9
20:09 21,8 18,2 20,4 80,1 5,3 285 - 0,2 12 1.013,9
20:08 21,8 18,3 20,5 80,6 5,2 285 - 0,2 13 1.013,9
20:07 21,9 18,4 20,6 80,7 5,0 285 - 0,2 14 1.013,9
20:06 21,9 18,3 20,5 80,1 5,0 285 - 0,2 14 1.013,9
20:05 21,9 18,3 20,5 80,1 5,3 284 - 0,2 16 1.013,8
20:04 21,9 18,5 20,7 81,0 5,5 282 - 0,2 16 1.013,8
20:03 21,9 18,1 20,3 79,0 5,7 281 - 0,2 16 1.013,8
20:02 21,9 18,2 20,4 79,5 5,8 279 - 0,2 16 1.013,8
20:01 21,9 18,2 20,4 79,3 6,0 277 - 0,2 16 1.013,8
20:00 21,9 18,1 20,3 79,0 6,1 277 - 0,2 18 1.013,7
 
19:59 21,9 18,1 20,4 79,1 6,2 278 - 0,2 18 1.013,7
19:58 21,9 18,2 20,4 79,7 6,2 279 - 0,2 18 1.013,7
19:57 22,0 18,4 20,6 79,9 6,1 278 - 0,2 18 1.013,7
19:56 22,0 18,6 20,7 80,8 5,8 278 - 0,2 19 1.013,7
19:55 22,0 18,3 20,5 79,6 5,4 279 - 0,2 19 1.013,7
19:54 22,0 18,5 20,7 80,6 4,8 281 - 0,2 19 1.013,7
19:53 22,0 18,3 20,5 79,3 4,6 284 - 0,2 21 1.013,7
19:52 22,0 18,4 20,6 80,0 4,5 286 - 0,2 21 1.013,6
19:51 22,0 18,3 20,5 79,3 4,5 288 - 0,2 22 1.013,6
19:50 22,0 18,3 20,5 79,7 4,5 288 - 0,2 25 1.013,6
19:49 22,0 18,2 20,4 79,0 5,0 285 - 0,2 26 1.013,6
19:48 21,9 17,9 20,2 78,2 5,4 282 - 0,2 28 1.013,6
19:47 22,0 18,3 20,6 79,8 5,8 279 - 0,2 31 1.013,6
19:46 22,0 18,2 20,5 79,1 5,7 278 - 0,2 33 1.013,6
19:45 22,0 18,2 20,4 79,0 5,7 277 - 0,2 34 1.013,6
19:44 22,0 18,2 20,4 79,0 5,8 278 - 0,2 37 1.013,6
19:43 22,0 18,1 20,3 78,3 6,2 279 - 0,2 39 1.013,6
19:42 22,0 18,3 20,5 79,6 6,4 281 - 0,2 40 1.013,6
19:41 22,1 18,3 20,6 79,2 6,2 282 - 0,2 43 1.013,6
19:40 22,1 18,7 20,9 81,0 5,7 283 - 0,2 44 1.013,6
19:39 22,1 18,5 20,7 80,1 5,6 284 - 0,2 44 1.013,7
19:38 22,1 18,5 20,7 80,1 5,6 285 - 0,2 46 1.013,6
19:37 22,1 18,5 20,7 80,1 5,9 285 - 0,2 47 1.013,6
19:36 22,1 18,5 20,7 80,1 6,0 284 - 0,2 50 1.013,6
19:35 22,2 18,4 20,7 79,1 6,1 283 - 0,2 52 1.013,6
19:34 22,2 18,4 20,6 79,0 6,2 282 - 0,2 55 1.013,6
19:33 22,2 18,4 20,6 79,0 6,5 280 - 0,2 59 1.013,6
19:32 22,2 18,3 20,5 78,4 6,6 280 - 0,2 67 1.013,6
19:31 22,2 18,2 20,4 77,9 6,5 281 - 0,2 74 1.013,6
19:30 22,3 18,4 20,7 78,8 6,6 282 - 0,2 113 1.013,6
19:29 22,3 18,7 20,9 80,0 6,6 285 - 0,2 136 1.013,6
19:28 22,3 18,8 21,0 80,5 6,0 288 - 0,2 100 1.013,6
19:27 22,3 18,9 21,1 80,9 5,2 290 - 0,2 53 1.013,6
19:26 22,3 18,7 20,9 80,1 5,0 290 - 0,2 53 1.013,6
19:25 22,3 18,7 20,9 80,1 5,3 289 - 0,2 51 1.013,6
19:24 22,3 18,7 20,9 80,1 5,7 286 - 0,2 55 1.013,6
19:23 22,3 18,7 20,9 80,0 5,6 282 - 0,2 65 1.013,6
19:22 22,3 18,5 20,7 79,0 5,5 278 - 0,2 88 1.013,5
19:21 22,3 18,6 20,8 79,5 5,5 276 - 0,2 101 1.013,5
19:20 22,3 18,7 20,9 80,1 5,7 276 - 0,2 95 1.013,5
19:19 22,3 18,7 20,9 80,1 5,7 276 - 0,2 112 1.013,5
19:18 22,3 18,5 20,8 79,2 5,6 276 - 0,2 106 1.013,5
19:17 22,3 18,7 20,9 80,1 5,4 277 - 0,2 89 1.013,5
19:16 22,3 18,7 20,9 80,1 5,3 277 - 0,2 85 1.013,5
19:15 22,3 18,6 20,9 79,7 5,3 277 - 0,2 67 1.013,5
19:14 22,2 18,4 20,6 79,0 5,4 277 - 0,2 60 1.013,5
19:13 22,3 18,5 20,7 79,0 5,7 277 - 0,2 55 1.013,5
19:12 22,3 18,5 20,7 79,0 5,8 277 - 0,2 47 1.013,5
19:11 22,3 18,5 20,7 79,0 5,7 277 - 0,2 50 1.013,5
19:10 22,3 18,5 20,7 79,0 5,5 276 - 0,2 76 1.013,5
19:09 22,3 18,5 20,7 79,0 5,3 276 - 0,2 80 1.013,6
19:08 22,3 18,3 20,6 78,2 5,4 274 - 0,2 64 1.013,6
19:07 22,3 18,0 20,4 76,9 5,6 273 - 0,2 76 1.013,6
19:06 22,4 18,3 20,6 77,9 5,7 272 - 0,2 62 1.013,6
19:05 22,4 18,3 20,6 77,9 5,6 272 - 0,2 70 1.013,6
19:04 22,4 18,3 20,6 77,5 5,4 273 - 0,2 86 1.013,5
19:03 22,4 18,1 20,5 76,7 5,4 274 - 0,2 84 1.013,5
19:02 22,5 18,2 20,6 76,7 5,6 275 - 0,2 84 1.013,5
19:01 22,5 18,2 20,6 76,7 6,0 276 - 0,2 116 1.013,5
19:00 22,5 18,2 20,6 76,7 6,1 277 - 0,2 129 1.013,5
 
18:59 22,5 18,0 20,4 75,9 6,0 276 - 0,2 113 1.013,5
18:58 22,5 18,1 20,5 76,4 6,0 275 - 0,2 119 1.013,5
18:57 22,5 18,0 20,4 75,6 6,4 273 - 0,2 132 1.013,5
18:56 22,5 18,0 20,4 75,6 6,6 272 - 0,2 124 1.013,5
18:55 22,6 18,4 20,8 77,3 6,8 270 - 0,2 125 1.013,4
18:54 22,5 18,3 20,6 77,0 6,8 269 - 0,2 144 1.013,4
18:53 22,6 18,5 20,8 77,6 6,7 270 - 0,2 162 1.013,5
18:52 22,6 18,4 20,7 77,2 6,6 270 - 0,2 158 1.013,5
18:51 22,7 18,6 20,9 77,9 6,5 272 - 0,2 172 1.013,5
18:50 22,7 18,5 20,8 77,2 6,3 275 - 0,2 132 1.013,5
18:49 22,7 18,4 20,8 76,7 6,0 277 - 0,2 145 1.013,5
18:48 22,7 18,4 20,8 76,7 6,1 279 - 0,2 185 1.013,5
18:47 22,7 18,4 20,8 76,7 6,4 280 - 0,2 222 1.013,5
18:46 22,7 18,4 20,8 76,7 6,6 281 - 0,2 285 1.013,5
18:45 22,7 18,4 20,8 76,7 6,8 281 - 0,2 300 1.013,4
18:44 22,7 18,6 20,9 77,5 6,8 279 - 0,2 317 1.013,4
18:43 22,7 18,5 20,8 77,0 6,8 278 - 0,2 242 1.013,5
18:42 22,7 18,6 20,9 77,8 6,6 276 - 0,2 207 1.013,5
18:41 22,8 18,5 20,8 76,5 6,6 275 - 0,2 239 1.013,5
18:40 22,8 18,4 20,7 76,1 6,7 275 - 0,2 265 1.013,5
18:39 22,8 18,3 20,7 76,0 6,9 276 - 0,2 308 1.013,4
18:38 22,8 18,1 20,5 75,0 7,2 277 - 0,2 338 1.013,4
18:37 22,8 18,0 20,5 74,5 7,2 278 - 0,2 353 1.013,4
18:36 22,8 18,2 20,6 75,5 6,9 278 - 0,2 358 1.013,4
18:35 22,8 18,0 20,5 74,5 6,7 278 - 0,2 366 1.013,4
18:34 22,8 17,9 20,4 74,1 6,9 279 - 0,2 370 1.013,3
18:33 22,9 18,2 20,6 74,6 7,2 280 - 0,2 373 1.013,3
18:32 22,9 18,4 20,8 75,6 7,1 282 - 0,2 377 1.013,3
18:31 22,9 18,2 20,6 74,8 7,0 283 - 0,2 379 1.013,3
18:30 22,9 18,0 20,4 73,8 7,4 286 - 0,2 383 1.013,3
18:29 22,9 18,3 20,7 75,4 7,8 285 - 0,2 400 1.013,3
18:28 22,9 18,1 20,6 74,5 7,7 284 - 0,2 432 1.013,3
18:27 22,9 18,1 20,6 74,5 7,4 282 - 0,2 452 1.013,3
18:26 22,9 18,3 20,7 75,3 7,4 281 - 0,2 441 1.013,3
18:25 23,0 18,3 20,7 74,6 7,5 280 - 0,2 432 1.013,3
18:24 23,0 18,5 20,9 75,6 7,3 280 - 0,2 434 1.013,3
18:23 23,0 18,5 20,9 75,6 7,1 279 - 0,2 425 1.013,3
18:22 23,0 18,5 20,9 75,6 7,1 279 - 0,2 436 1.013,3
18:21 23,0 18,7 21,0 76,5 7,1 279 - 0,2 437 1.013,3
18:20 23,0 18,5 20,9 76,0 7,0 280 - 0,2 414 1.013,4
18:19 23,0 18,9 21,2 77,5 6,8 281 - 0,2 418 1.013,4
18:18 23,1 19,0 21,4 77,9 6,4 282 - 0,2 427 1.013,3
18:17 23,1 19,1 21,4 78,2 6,0 285 - 0,2 456 1.013,3
18:16 23,1 19,1 21,4 78,0 6,0 287 - 0,2 492 1.013,3
18:15 23,0 18,8 21,2 77,4 6,3 286 - 0,2 502 1.013,3
18:14 23,1 19,0 21,4 77,9 6,6 284 - 0,2 338 1.013,3
18:13 23,0 18,9 21,2 77,8 6,9 282 - 0,2 352 1.013,3
18:12 23,1 18,8 21,2 77,0 6,9 282 - 0,2 391 1.013,3
18:11 23,1 19,0 21,3 77,5 5,9 282 - 0,2 304 1.013,4
18:10 23,0 18,6 21,0 76,2 4,8 284 - 0,2 250 1.013,4
18:09 22,9 18,4 20,8 75,6 4,6 288 - 0,2 235 1.013,4
18:07 23,0 18,6 20,9 76,1 5,1 292 - 0,2 226 1.013,4
18:06 23,0 18,7 21,1 76,7 5,3 295 - 0,2 205 1.013,3
18:05 23,0 18,7 21,1 76,7 5,2 296 - 0,2 193 1.013,3
18:04 23,1 18,8 21,2 76,7 5,1 297 - 0,2 168 1.013,3
18:03 23,0 18,7 21,1 76,7 4,7 297 - 0,2 165 1.013,4
18:02 23,0 18,5 20,9 75,9 4,4 296 - 0,2 165 1.013,4
18:01 23,0 18,5 20,9 75,7 4,3 295 - 0,2 161 1.013,4
18:00 23,0 18,6 21,0 76,4 4,2 295 - 0,2 148 1.013,4
 
17:59 23,0 18,5 20,9 75,6 4,1 294 - 0,2 137 1.013,4
17:58 23,0 18,6 21,0 76,4 4,2 293 - 0,2 132 1.013,4
17:57 23,1 18,7 21,0 76,1 4,2 293 - 0,2 134 1.013,4
17:56 23,1 18,7 21,1 76,5 4,1 294 - 0,2 145 1.013,4
17:55 23,1 18,3 20,8 74,5 3,9 293 - 0,2 175 1.013,4
17:54 23,1 18,2 20,6 73,8 4,2 292 - 0,2 180 1.013,4
17:53 23,1 18,2 20,7 74,1 4,6 291 - 0,2 168 1.013,3
17:52 23,1 18,4 20,8 74,6 4,7 291 - 0,2 172 1.013,3
17:51 23,2 18,7 21,1 75,6 4,5 292 - 0,2 166 1.013,4
17:50 23,2 18,9 21,3 76,7 3,8 291 - 0,2 160 1.013,4
17:49 23,2 18,4 20,9 74,5 3,5 291 - 0,2 156 1.013,4
17:48 23,3 18,4 20,8 73,8 3,5 290 - 0,2 151 1.013,4
17:47 23,3 18,5 21,0 74,5 3,4 289 - 0,2 140 1.013,4
17:46 23,4 18,5 20,9 73,8 3,1 288 - 0,2 122 1.013,4
17:45 23,4 18,5 21,0 74,2 3,1 286 - 0,2 118 1.013,4
17:44 23,5 18,5 21,0 73,7 3,3 286 - 0,2 127 1.013,4
17:43 23,6 18,8 21,3 74,5 3,3 287 - 0,2 311 1.013,3
17:42 23,6 18,9 21,3 74,9 3,2 287 - 0,2 492 1.013,3
17:41 23,7 19,0 21,5 75,2 3,1 286 - 0,2 492 1.013,3
17:40 23,6 18,7 21,1 73,9 3,2 285 - 0,2 488 1.013,3
17:39 23,5 18,5 21,0 73,4 3,5 284 - 0,2 501 1.013,3
17:38 23,5 18,5 21,0 73,4 3,8 284 - 0,2 468 1.013,3
17:37 23,5 18,5 21,0 73,7 3,9 284 - 0,2 403 1.013,3
17:36 23,5 18,6 21,1 74,2 3,8 284 - 0,2 443 1.013,3
17:35 23,5 18,5 21,0 73,4 3,7 283 - 0,2 543 1.013,3
17:34 23,4 18,4 20,9 73,4 3,9 283 - 0,2 570 1.013,3
17:33 23,3 18,3 20,8 73,4 4,1 283 - 0,2 481 1.013,4
17:32 23,3 18,3 20,8 73,4 4,2 283 - 0,2 274 1.013,4
17:31 23,3 18,1 20,6 72,6 4,2 282 - 0,2 274 1.013,3
17:30 23,3 18,3 20,8 73,4 4,2 283 - 0,2 248 1.013,3
17:29 23,3 18,3 20,8 73,4 4,3 283 - 0,2 234 1.013,3
17:28 23,3 18,4 20,9 74,1 4,2 283 - 0,2 234 1.013,3
17:27 23,2 18,3 20,7 73,8 4,1 282 - 0,2 215 1.013,3
17:26 23,2 18,2 20,7 73,4 3,8 280 - 0,2 167 1.013,3
17:25 23,2 18,1 20,6 73,2 3,7 279 - 0,2 200 1.013,3
17:24 23,2 18,0 20,5 72,4 4,0 278 - 0,2 237 1.013,3
17:23 23,3 18,0 20,6 72,4 4,4 276 - 0,2 264 1.013,3
17:22 23,4 18,1 20,7 72,4 4,7 274 - 0,2 344 1.013,3
17:21 23,6 18,3 20,9 72,4 4,3 271 - 0,2 290 1.013,2
17:20 23,7 18,4 20,9 72,2 3,6 266 - 0,2 298 1.013,3
17:19 23,7 18,2 20,8 71,3 3,0 260 - 0,2 335 1.013,3
17:18 23,7 18,2 20,8 71,3 2,8 255 - 0,2 496 1.013,3
17:17 23,7 18,2 20,8 71,3 2,7 251 - 0,2 566 1.013,3
17:16 23,7 18,2 20,8 71,3 2,6 249 - 0,2 509 1.013,3
17:15 23,6 18,3 20,8 72,1 2,5 249 - 0,2 506 1.013,4
17:14 23,5 18,2 20,8 72,4 2,3 249 - 0,2 483 1.013,4
17:13 23,4 18,1 20,6 72,1 2,5 249 - 0,2 359 1.013,4
17:12 23,3 17,9 20,5 71,7 2,7 248 - 0,2 295 1.013,4
17:11 23,4 18,1 20,7 72,4 2,7 246 - 0,2 237 1.013,4
17:10 23,4 18,0 20,5 71,6 2,7 246 - 0,2 231 1.013,4
17:09 23,4 17,9 20,5 71,3 2,8 245 - 0,2 254 1.013,4
17:08 23,4 17,9 20,5 71,3 3,0 245 - 0,2 298 1.013,4
17:07 23,4 17,9 20,5 71,3 3,3 245 - 0,2 305 1.013,4
17:06 23,4 17,9 20,5 71,3 3,5 247 - 0,2 296 1.013,4
17:05 23,4 17,9 20,5 71,3 3,7 248 - 0,2 301 1.013,4
17:04 23,4 17,9 20,5 71,3 3,7 248 - 0,2 301 1.013,3
17:03 23,4 18,1 20,7 72,2 3,7 248 - 0,2 252 1.013,4
17:02 23,4 18,1 20,7 72,4 3,5 247 - 0,2 205 1.013,4
17:01 23,4 18,1 20,6 72,0 3,4 244 - 0,2 175 1.013,4
17:00 23,4 18,0 20,6 71,8 3,4 239 - 0,2 160 1.013,4
 
16:59 23,4 18,0 20,6 71,7 3,4 236 - 0,2 151 1.013,4
16:58 23,4 17,9 20,5 71,4 3,4 235 - 0,2 141 1.013,4
16:57 23,4 18,1 20,7 72,4 3,3 235 - 0,2 135 1.013,4
16:56 23,4 17,9 20,5 71,2 3,4 235 - 0,2 137 1.013,4
16:55 23,4 17,8 20,4 70,6 3,6 236 - 0,2 145 1.013,4
16:54 23,5 18,0 20,6 71,3 3,7 237 - 0,2 160 1.013,4
16:53 23,5 18,0 20,6 71,3 3,4 239 - 0,2 186 1.013,4
16:52 23,5 17,8 20,4 70,5 3,2 239 - 0,2 214 1.013,4
16:51 23,6 17,9 20,5 70,3 3,1 240 - 0,2 244 1.013,4
16:50 23,6 18,1 20,7 71,3 3,1 242 - 0,2 265 1.013,4
16:49 23,6 18,1 20,7 71,3 3,1 244 - 0,2 281 1.013,4
16:48 23,5 18,0 20,6 71,3 3,3 245 - 0,2 277 1.013,4
16:47 23,5 18,0 20,6 71,3 3,4 246 - 0,2 275 1.013,4
16:46 23,5 17,8 20,4 70,5 3,4 245 - 0,2 283 1.013,4
16:45 23,6 17,7 20,3 69,4 3,4 245 - 0,2 294 1.013,4
16:44 23,8 18,0 20,6 70,0 3,4 245 - 0,2 300 1.013,4
16:43 23,9 17,9 20,6 69,1 3,4 245 - 0,2 310 1.013,4
16:42 24,0 17,9 20,6 68,6 3,5 244 - 0,2 303 1.013,3
16:41 24,1 18,0 20,7 68,8 3,5 242 - 0,2 334 1.013,3
16:40 24,1 18,3 20,9 70,0 3,4 242 - 0,2 373 1.013,4
16:39 24,0 18,3 20,9 70,3 3,5 241 - 0,2 497 1.013,4
16:38 23,9 18,3 20,9 71,1 3,9 239 - 0,2 619 1.013,3
16:37 23,8 18,0 20,7 70,2 4,3 236 - 0,2 564 1.013,3
16:36 23,8 18,0 20,7 70,2 4,4 234 - 0,2 540 1.013,3
16:35 23,8 18,2 20,8 71,0 4,4 233 - 0,2 473 1.013,3
16:34 23,9 18,8 21,3 73,0 4,0 232 - 0,2 450 1.013,3
16:33 23,9 18,4 21,0 71,5 3,6 233 - 0,2 404 1.013,3
16:32 23,9 18,7 21,2 72,7 3,2 236 - 0,2 404 1.013,3
16:31 23,7 18,6 21,1 73,0 3,1 239 - 0,2 404 1.013,4
16:30 23,7 18,3 20,9 71,8 3,2 241 - 0,2 402 1.013,4
16:29 23,6 18,3 20,8 72,0 3,2 242 - 0,2 370 1.013,3
16:28 23,6 18,1 20,7 71,5 3,2 242 - 0,2 362 1.013,3
16:27 23,6 18,3 20,8 72,2 3,1 240 - 0,2 365 1.013,4
16:26 23,5 18,1 20,6 71,6 3,2 239 - 0,2 380 1.013,4
16:25 23,6 18,3 20,9 72,4 3,2 239 - 0,2 386 1.013,4
16:24 23,5 18,2 20,8 72,4 3,2 239 - 0,2 400 1.013,4
16:23 23,5 18,2 20,8 72,4 3,0 239 - 0,2 400 1.013,4
16:22 23,4 18,4 20,8 73,3 2,8 239 - 0,2 348 1.013,4
16:21 23,4 18,2 20,7 72,5 2,6 240 - 0,2 325 1.013,5
16:20 23,4 18,1 20,7 72,4 2,5 239 - 0,2 305 1.013,5
16:19 23,3 18,0 20,6 72,4 2,6 237 - 0,2 289 1.013,5
16:18 23,2 18,1 20,6 73,0 2,9 235 - 0,2 277 1.013,4
16:17 23,2 18,0 20,5 72,7 3,2 232 - 0,2 268 1.013,4
16:16 23,2 18,0 20,5 72,4 3,4 231 - 0,2 262 1.013,5
16:15 23,3 17,8 20,4 71,4 3,5 230 - 0,2 258 1.013,5
16:14 23,3 17,8 20,4 71,3 3,5 231 - 0,2 256 1.013,5
16:13 23,2 17,9 20,4 71,9 3,6 233 - 0,2 253 1.013,5
16:12 23,2 18,1 20,6 73,0 3,4 237 - 0,2 251 1.013,5
16:11 23,2 18,0 20,5 72,7 3,2 241 - 0,2 252 1.013,5
16:10 23,2 18,2 20,7 73,3 3,1 244 - 0,2 255 1.013,5
16:09 23,2 18,2 20,7 73,4 3,0 247 - 0,2 266 1.013,5
16:08 23,2 18,2 20,7 73,4 3,0 249 - 0,2 272 1.013,5
16:07 23,2 18,1 20,6 72,9 3,0 251 - 0,2 282 1.013,5
16:06 23,2 18,0 20,5 72,4 3,1 252 - 0,2 289 1.013,5
16:05 23,2 18,0 20,5 72,4 3,2 252 - 0,2 304 1.013,5
16:04 23,2 18,0 20,5 72,5 3,3 251 - 0,2 295 1.013,5
16:03 23,2 18,2 20,7 73,4 3,2 250 - 0,2 257 1.013,5
16:02 23,1 18,1 20,6 73,4 3,1 249 - 0,2 237 1.013,5
16:01 23,1 18,0 20,5 72,9 3,1 247 - 0,2 225 1.013,5
16:00 23,1 17,9 20,4 72,4 3,1 247 - 0,2 216 1.013,5
 
15:59 23,0 17,8 20,3 72,4 3,3 247 - 0,2 212 1.013,6
15:58 23,0 18,0 20,5 73,4 3,5 248 - 0,2 211 1.013,6
15:57 23,1 18,1 20,6 73,4 3,4 248 - 0,2 214 1.013,6
15:56 23,1 18,1 20,6 73,4 3,0 249 - 0,2 227 1.013,6
15:55 23,0 17,9 20,4 72,9 2,8 249 - 0,2 232 1.013,6
15:54 23,0 17,9 20,4 73,1 3,0 249 - 0,2 245 1.013,6
15:53 23,0 18,2 20,6 74,3 3,1 249 - 0,2 261 1.013,6
15:52 23,0 18,2 20,7 74,5 3,0 249 - 0,2 275 1.013,6
15:51 22,9 18,1 20,6 74,5 3,0 250 - 0,2 290 1.013,6
15:50 22,9 18,0 20,5 74,1 3,1 250 - 0,2 305 1.013,6
15:49 22,9 17,9 20,4 73,4 3,3 251 - 0,2 298 1.013,6
15:48 22,9 17,9 20,4 73,4 3,5 253 - 0,2 324 1.013,6
15:47 22,9 18,1 20,6 74,4 3,6 254 - 0,2 334 1.013,6
15:46 22,9 17,9 20,4 73,5 3,6 256 - 0,2 347 1.013,6
15:45 22,9 17,9 20,4 73,4 3,8 257 - 0,2 373 1.013,6
15:44 22,9 17,9 20,4 73,4 4,0 256 - 0,2 373 1.013,6
15:43 22,9 18,0 20,5 74,1 4,1 257 - 0,2 386 1.013,6
15:42 22,9 18,0 20,4 73,8 4,1 259 - 0,2 393 1.013,5
15:40 22,8 18,2 20,6 75,4 4,0 260 - 0,2 387 1.013,6
15:39 22,8 18,0 20,5 74,5 4,1 260 - 0,2 385 1.013,6
15:38 22,8 18,2 20,6 75,1 4,5 259 - 0,2 378 1.013,5
15:37 22,8 18,1 20,5 75,0 4,8 256 - 0,2 373 1.013,5
15:36 22,8 18,2 20,6 75,4 4,7 255 - 0,2 375 1.013,6
15:35 22,8 17,9 20,3 73,8 4,7 254 - 0,2 385 1.013,7
15:34 22,7 18,0 20,4 74,6 4,8 254 - 0,2 397 1.013,6
15:33 22,7 18,1 20,5 75,3 4,7 254 - 0,2 396 1.013,6
15:32 22,7 18,1 20,5 75,1 4,9 254 - 0,2 391 1.013,7
15:31 22,8 18,3 20,7 75,6 4,8 257 - 0,2 385 1.013,7
15:30 22,7 18,2 20,6 75,6 4,9 259 - 0,2 386 1.013,7
15:29 22,7 18,0 20,4 74,6 5,0 258 - 0,2 388 1.013,7
15:28 22,7 18,0 20,4 74,8 5,3 257 - 0,2 392 1.013,7
15:27 22,7 18,3 20,6 76,1 5,5 258 - 0,2 389 1.013,6
15:26 22,7 18,3 20,7 76,2 5,2 259 - 0,2 401 1.013,6
15:25 22,7 18,2 20,6 75,6 5,1 260 - 0,2 434 1.013,6
15:24 22,7 18,5 20,9 77,3 5,2 261 - 0,2 432 1.013,6
15:23 22,7 18,6 20,9 77,9 5,3 261 - 0,2 415 1.013,6
15:22 22,7 18,4 20,8 76,7 5,4 262 - 0,2 404 1.013,6
15:21 22,7 18,4 20,8 76,7 5,4 263 - 0,2 419 1.013,6
15:20 22,7 18,3 20,7 76,2 5,3 263 - 0,2 458 1.013,6
15:19 22,8 18,3 20,7 75,6 5,2 262 - 0,2 531 1.013,6
15:18 22,8 18,3 20,7 75,6 5,2 259 - 0,2 518 1.013,6
15:17 22,8 18,5 20,8 76,5 5,2 256 - 0,2 470 1.013,6
15:16 22,8 18,0 20,4 74,3 5,1 254 - 0,2 446 1.013,7
15:15 22,9 17,9 20,4 73,4 5,1 253 - 0,2 566 1.013,7
15:14 22,9 17,9 20,4 73,4 5,1 250 - 0,2 622 1.013,6
15:13 22,9 18,1 20,5 74,2 5,3 247 - 0,2 635 1.013,6
15:12 22,9 18,3 20,7 75,4 5,1 246 - 0,2 636 1.013,7
15:11 22,9 18,2 20,6 74,8 5,2 246 - 0,2 549 1.013,7
15:10 22,9 18,3 20,7 75,2 5,2 246 - 0,2 462 1.013,6
15:09 22,9 18,2 20,6 75,0 4,9 248 - 0,2 457 1.013,7
15:08 22,9 18,3 20,7 75,1 4,8 251 - 0,2 442 1.013,7
15:07 22,8 18,0 20,5 74,5 5,2 256 - 0,2 438 1.013,7
15:06 22,9 18,1 20,6 74,5 5,3 259 - 0,2 422 1.013,7
15:05 22,9 17,9 20,4 73,5 5,4 262 - 0,2 581 1.013,7
15:04 22,9 18,0 20,4 73,8 5,5 262 - 0,2 784 1.013,6
15:03 22,9 18,2 20,6 75,0 5,5 261 - 0,2 784 1.013,6
15:02 22,9 18,4 20,8 75,6 5,4 260 - 0,2 794 1.013,6
15:01 22,8 18,3 20,7 75,6 5,4 260 - 0,2 798 1.013,7
15:00 22,7 18,4 20,7 76,6 5,2 261 - 0,2 799 1.013,6
 
14:59 22,6 18,5 20,8 77,9 4,9 262 - 0,2 725 1.013,6
14:58 22,5 18,4 20,7 77,5 4,9 263 - 0,2 649 1.013,6
14:57 22,5 18,2 20,6 76,7 5,2 264 - 0,2 471 1.013,6
14:56 22,5 18,5 20,8 78,1 5,5 266 - 0,2 427 1.013,6
14:55 22,4 18,2 20,6 77,3 5,9 268 - 0,2 427 1.013,6
14:54 22,4 18,5 20,8 78,8 6,2 268 - 0,2 427 1.013,7
14:53 22,3 18,5 20,7 78,9 6,4 269 - 0,2 427 1.013,7
14:52 22,4 18,3 20,6 77,9 6,4 269 - 0,2 427 1.013,7
14:51 22,4 18,3 20,6 77,9 6,2 270 - 0,2 427 1.013,6
14:50 22,4 18,3 20,6 77,9 6,1 269 - 0,2 713 1.013,7
14:49 22,5 18,4 20,7 77,9 6,2 267 - 0,2 728 1.013,6
14:48 22,5 18,2 20,6 76,9 6,2 265 - 0,2 674 1.013,6
14:47 22,6 18,4 20,7 77,0 5,8 264 - 0,2 592 1.013,6
14:46 22,5 18,5 20,8 78,3 5,3 265 - 0,2 543 1.013,6
14:45 22,5 18,7 20,9 79,0 5,0 266 - 0,2 481 1.013,7
14:44 22,4 18,6 20,8 79,0 5,0 267 - 0,2 748 1.013,6
14:43 22,4 18,6 20,8 79,0 5,0 269 - 0,2 677 1.013,6
14:42 22,3 18,5 20,8 79,1 4,9 271 - 0,2 418 1.013,7
14:41 22,3 18,7 20,9 80,1 4,9 272 - 0,2 418 1.013,7
14:40 22,3 18,7 20,9 80,1 4,9 272 - 0,2 418 1.013,7
14:39 22,3 18,7 20,9 80,1 4,9 272 - 0,2 457 1.013,7
14:38 22,3 18,6 20,8 79,5 5,0 272 - 0,2 414 1.013,7
14:37 22,3 18,3 20,6 78,1 5,4 271 - 0,2 411 1.013,7
14:36 22,3 18,5 20,7 79,0 5,8 271 - 0,2 430 1.013,7
14:35 22,3 18,4 20,7 78,8 6,1 270 - 0,2 452 1.013,7
14:34 22,3 18,3 20,6 78,3 6,1 269 - 0,2 452 1.013,7
14:33 22,3 18,4 20,6 78,4 6,0 270 - 0,2 452 1.013,7
14:32 22,4 18,3 20,6 77,9 6,0 269 - 0,2 437 1.013,7
14:31 22,5 18,4 20,7 77,9 6,0 268 - 0,2 610 1.013,7
14:30 22,6 18,7 21,0 78,9 6,0 264 - 0,2 629 1.013,8
14:29 22,6 18,5 20,8 77,9 6,2 259 - 0,2 652 1.013,8
14:28 22,8 18,4 20,8 76,4 6,1 256 - 0,2 652 1.013,9
14:27 22,8 18,0 20,5 74,5 5,8 252 - 0,2 701 1.013,8
14:26 22,9 18,3 20,7 75,3 5,2 247 - 0,2 708 1.013,9
14:25 22,8 18,3 20,7 75,6 4,9 243 - 0,2 667 1.013,9
14:24 22,7 18,0 20,4 75,0 4,9 241 - 0,2 427 1.013,9
14:23 22,7 18,2 20,6 76,0 4,7 240 - 0,2 427 1.013,9
14:22 22,8 18,4 20,8 76,2 4,4 239 - 0,2 417 1.013,9
14:21 22,7 18,2 20,6 75,6 4,2 237 - 0,2 389 1.013,9
14:20 22,6 18,1 20,5 75,6 4,3 238 - 0,2 365 1.013,9
14:19 22,6 18,1 20,5 75,6 4,2 241 - 0,2 296 1.013,9
14:18 22,6 18,1 20,5 75,9 4,2 244 - 0,2 249 1.013,8
14:17 22,6 18,3 20,7 76,7 4,1 246 - 0,2 225 1.013,9
14:16 22,6 18,3 20,7 76,7 3,7 248 - 0,2 212 1.013,9
14:15 22,6 18,3 20,7 76,7 3,3 249 - 0,2 200 1.013,8
14:14 22,6 18,3 20,7 76,7 3,2 249 - 0,2 193 1.013,8
14:13 22,6 18,1 20,5 75,7 3,3 248 - 0,2 193 1.013,8
14:12 22,7 18,2 20,6 75,6 3,4 247 - 0,2 192 1.013,9
14:11 22,7 18,2 20,6 76,0 3,3 246 - 0,2 188 1.013,9
14:10 22,7 18,3 20,7 76,3 3,2 246 - 0,2 188 1.013,8
14:09 22,6 18,1 20,5 75,6 3,3 248 - 0,2 187 1.013,9
14:08 22,6 18,3 20,6 76,5 3,3 250 - 0,2 181 1.013,9
14:06 22,7 18,2 20,6 75,6 3,3 253 - 0,2 210 1.013,8
14:05 22,8 18,3 20,7 75,6 3,5 255 - 0,2 259 1.013,8
14:04 22,9 18,3 20,7 75,1 3,6 256 - 0,2 316 1.013,8
14:03 23,0 18,4 20,8 75,3 3,7 253 - 0,2 342 1.013,8
14:02 23,2 18,4 20,9 74,6 3,3 249 - 0,2 343 1.013,8
14:01 23,2 18,4 20,9 74,5 2,9 242 - 0,2 343 1.013,8
14:00 23,2 18,4 20,9 74,5 2,5 235 - 0,2 300 1.013,8
 
13:59 23,2 18,4 20,9 74,5 2,2 229 - 0,2 280 1.013,7
13:58 23,2 18,4 20,9 74,5 2,2 224 - 0,2 287 1.013,8
13:57 23,2 18,4 20,9 74,5 2,3 222 - 0,2 311 1.013,8
13:56 23,2 18,2 20,7 73,7 2,4 221 - 0,2 330 1.013,8
13:55 23,2 18,2 20,7 73,4 2,5 219 - 0,2 326 1.013,7
13:54 23,3 18,3 20,8 73,4 2,6 218 - 0,2 311 1.013,7
13:53 23,3 18,3 20,8 73,4 2,4 217 - 0,2 294 1.013,7
13:52 23,3 18,3 20,8 73,4 2,1 216 - 0,2 282 1.013,7
13:51 23,4 18,4 20,9 73,4 1,7 217 - 0,2 278 1.013,7
13:50 23,4 18,4 20,9 73,4 1,5 218 - 0,2 277 1.013,7
13:49 23,3 18,3 20,8 73,4 1,6 219 - 0,2 279 1.013,7
13:48 23,4 18,4 20,9 73,4 1,9 219 - 0,2 280 1.013,7
13:47 23,4 18,4 20,9 73,4 1,8 219 - 0,2 281 1.013,7
13:46 23,4 18,3 20,8 72,9 1,8 219 - 0,2 279 1.013,7
13:45 23,4 18,3 20,8 73,1 1,7 220 - 0,2 276 1.013,7
13:44 23,5 18,5 21,0 73,4 1,6 218 - 0,2 275 1.013,7
13:43 23,4 18,4 20,9 73,4 1,6 217 - 0,2 278 1.013,7
13:42 23,4 18,4 20,9 73,4 1,5 218 - 0,2 280 1.013,7
13:41 23,4 18,5 20,9 73,9 1,6 220 - 0,2 286 1.013,7
13:40 23,3 18,4 20,9 74,0 2,0 218 - 0,2 302 1.013,7
13:39 23,3 18,4 20,9 74,2 2,1 216 - 0,2 305 1.013,7
13:38 23,3 18,5 21,0 74,5 1,7 215 - 0,2 321 1.013,7
13:37 23,2 18,4 20,8 74,2 1,6 214 - 0,2 334 1.013,7
13:36 23,2 18,2 20,7 73,4 2,0 214 - 0,2 329 1.013,7
13:35 23,2 18,2 20,7 73,4 2,9 213 - 0,2 329 1.013,6
13:34 23,3 18,3 20,8 73,4 3,9 214 - 0,2 342 1.013,7
13:33 23,3 18,5 20,9 74,3 3,9 216 - 0,2 374 1.013,7
13:32 23,3 18,5 21,0 74,5 2,9 217 - 0,2 374 1.013,7
13:31 23,3 18,5 21,0 74,5 2,0 219 - 0,2 333 1.013,7
13:30 23,2 18,4 20,9 74,5 2,0 220 - 0,2 265 1.013,7
13:29 23,2 18,4 20,9 74,5 2,2 220 - 0,2 241 1.013,7
13:28 23,3 18,5 21,0 74,5 2,1 219 - 0,2 231 1.013,8
13:27 23,3 18,4 20,8 73,8 2,0 218 - 0,2 232 1.013,8
13:26 23,3 18,3 20,8 73,4 2,1 215 - 0,2 237 1.013,8
13:25 23,3 18,3 20,8 73,4 2,2 212 - 0,2 236 1.013,8
13:24 23,4 18,4 20,9 73,4 2,0 207 - 0,2 241 1.013,8
13:23 23,4 18,3 20,8 72,9 1,8 204 - 0,2 245 1.013,8
13:22 23,4 18,1 20,7 72,4 1,9 204 - 0,2 253 1.013,8
13:21 23,5 18,2 20,8 72,4 2,3 204 - 0,2 263 1.013,8
13:20 23,6 18,1 20,7 71,4 2,6 207 - 0,2 275 1.013,7
13:19 23,8 18,3 20,9 71,3 2,6 213 - 0,2 301 1.013,8
13:18 24,0 18,6 21,1 71,7 2,0 222 - 0,2 398 1.013,7
13:17 23,9 18,6 21,2 72,4 1,4 228 - 0,2 432 1.013,8
13:16 23,8 18,5 21,1 72,4 1,7 231 - 0,2 437 1.013,7
13:15 23,7 18,4 21,0 72,4 1,9 232 - 0,2 453 1.013,8
13:14 23,7 18,4 21,0 72,4 2,0 232 - 0,2 434 1.013,8
13:13 23,7 18,4 21,0 72,4 2,4 229 - 0,2 492 1.013,7
13:12 23,8 18,5 21,1 72,4 2,4 225 - 0,2 709 1.013,7
13:11 23,8 18,4 21,0 71,8 2,0 222 - 0,2 786 1.013,8
13:10 23,8 18,6 21,1 72,7 1,5 224 - 0,2 497 1.013,8
13:09 23,8 18,8 21,3 73,4 1,3 226 - 0,2 482 1.013,8
13:08 23,5 18,5 21,0 73,4 1,0 224 - 0,2 482 1.013,8
13:07 23,4 18,3 20,8 73,2 1,7 223 - 0,2 446 1.013,7
13:06 23,5 18,2 20,8 72,4 2,3 224 - 0,2 430 1.013,8
13:05 23,7 18,3 20,9 71,8 2,5 225 - 0,2 373 1.013,8
13:04 24,0 18,5 21,1 71,3 2,1 223 - 0,2 613 1.013,8
13:03 24,1 18,6 21,1 71,3 1,6 219 - 0,2 641 1.013,8
13:02 24,0 18,5 21,0 71,2 1,1 219 - 0,2 705 1.013,8
13:01 24,0 18,2 20,9 70,2 1,4 220 - 0,2 705 1.013,8
13:00 24,3 18,6 21,2 70,7 1,7 218 - 0,2 689 1.013,8
 
12:59 24,2 18,7 21,2 71,3 1,4 216 - 0,2 665 1.013,8
12:58 24,2 18,8 21,4 72,0 0,8 215 - 0,2 752 1.013,8
12:57 24,0 18,7 21,2 72,4 0,8 212 - 0,2 724 1.013,8
12:56 23,9 18,6 21,2 72,4 1,1 207 - 0,2 628 1.013,8
12:55 23,9 18,6 21,2 72,4 1,4 199 - 0,2 616 1.013,8
12:54 23,9 18,6 21,2 72,4 1,2 193 - 0,2 654 1.013,8
12:53 23,8 18,5 21,1 72,4 0,9 189 - 0,2 651 1.013,8
12:52 23,7 18,6 21,1 73,2 0,7 183 - 0,2 681 1.013,8
12:51 23,6 18,6 21,1 73,4 1,0 173 - 0,2 677 1.013,8
12:50 23,5 18,5 21,0 73,7 1,2 163 - 0,2 680 1.013,8
12:49 23,5 18,7 21,2 74,5 1,1 164 - 0,2 670 1.013,8
12:48 23,3 18,4 20,9 74,1 1,0 172 - 0,2 639 1.013,8
12:47 23,3 18,3 20,8 73,4 0,9 175 - 0,2 609 1.013,8
12:46 23,3 18,3 20,8 73,4 1,3 177 - 0,2 678 1.013,8
12:45 23,4 18,4 20,9 73,4 2,0 181 - 0,2 679 1.013,8
12:44 23,6 18,6 21,1 73,4 1,7 188 - 0,2 669 1.013,8
12:43 23,4 18,5 20,9 73,9 1,2 194 - 0,2 641 1.013,8
12:42 23,3 18,5 21,0 74,5 1,0 198 - 0,2 652 1.013,8
12:41 23,2 18,4 20,9 74,5 1,2 206 - 0,2 659 1.013,8
12:40 23,2 18,4 20,9 74,5 1,4 215 - 0,2 619 1.013,8
12:39 23,1 18,5 20,9 75,5 1,4 219 - 0,2 619 1.013,9
12:38 22,9 18,1 20,6 74,5 1,4 219 - 0,2 621 1.013,9
12:37 23,0 18,2 20,7 74,5 1,6 216 - 0,2 640 1.013,9
12:36 23,0 18,2 20,7 74,5 1,6 211 - 0,2 637 1.013,9
12:35 23,0 18,2 20,7 74,5 1,3 208 - 0,2 383 1.013,9
12:34 23,0 18,2 20,7 74,5 1,0 207 - 0,2 369 1.013,9
12:33 23,0 18,2 20,7 74,5 0,8 208 - 0,2 369 1.013,9
12:32 23,0 18,2 20,7 74,5 1,0 208 - 0,2 398 1.013,9
12:31 22,9 18,1 20,6 74,5 1,4 207 - 0,2 417 1.013,9
12:30 23,0 18,2 20,7 74,5 1,4 202 - 0,2 413 1.013,9
12:29 23,0 18,2 20,7 74,5 1,0 194 - 0,2 340 1.013,9
12:28 22,9 18,1 20,6 74,5 0,8 185 - 0,2 336 1.013,9
12:27 22,9 18,1 20,6 74,5 0,9 176 - 0,2 320 1.013,9
12:26 23,0 18,2 20,7 74,5 0,8 172 - 0,2 322 1.013,9
12:25 23,0 18,2 20,7 74,5 0,7 177 - 0,2 293 1.013,9
12:24 23,1 18,3 20,8 74,5 0,7 186 - 0,2 337 1.014,0
12:23 23,1 18,3 20,8 74,5 0,6 192 - 0,2 343 1.014,0
12:22 23,1 18,3 20,8 74,5 0,5 195 - 0,2 343 1.014,0
12:21 23,1 18,3 20,8 74,5 0,7 196 - 0,2 344 1.014,0
12:20 23,1 18,3 20,8 74,5 1,0 198 - 0,2 432 1.014,0
12:19 23,1 18,4 20,8 75,0 1,1 199 - 0,2 490 1.014,0
12:18 23,0 18,5 20,9 75,6 1,1 202 - 0,2 492 1.014,0
12:17 23,0 18,5 20,9 75,6 1,1 204 - 0,2 551 1.014,0
12:16 22,8 18,5 20,8 76,6 1,0 200 - 0,2 598 1.014,0
12:15 22,7 18,4 20,8 76,7 1,0 193 - 0,2 573 1.013,9
12:14 22,6 18,3 20,7 76,7 0,8 188 - 0,2 594 1.013,9
12:13 22,5 18,3 20,7 77,3 0,9 187 - 0,2 664 1.013,9
12:12 22,4 18,3 20,6 77,9 0,8 190 - 0,2 671 1.013,9
12:11 22,2 18,2 20,4 77,9 1,1 196 - 0,2 620 1.013,8
12:10 22,1 18,1 20,3 77,9 1,3 203 - 0,2 586 1.013,9
12:09 22,1 18,1 20,4 78,1 1,3 208 - 0,2 442 1.013,9
12:08 22,0 18,2 20,4 79,0 1,4 210 - 0,2 278 1.013,9
12:07 21,9 18,1 20,3 79,0 1,3 209 - 0,2 278 1.013,9
12:06 21,8 18,0 20,2 79,0 1,2 204 - 0,2 284 1.013,9
12:05 21,8 18,2 20,4 79,9 0,7 196 - 0,2 341 1.013,9
12:04 21,6 18,0 20,2 80,1 0,6 187 - 0,2 341 1.013,9
12:03 21,6 18,0 20,2 80,1 0,7 176 - 0,2 289 1.013,9
12:02 21,6 18,0 20,2 80,1 0,8 165 - 0,2 259 1.013,9
12:01 21,5 17,9 20,1 80,1 0,7 162 - 0,2 275 1.013,9
12:00 21,5 17,9 20,1 80,1 0,7 165 - 0,2 271 1.013,9
 
11:59 21,5 17,9 20,1 80,1 0,8 166 - 0,2 257 1.013,9
11:58 21,4 17,8 20,0 80,1 0,9 166 - 0,2 245 1.013,9
11:57 21,4 17,8 20,0 80,1 0,9 163 - 0,2 250 1.013,9
11:56 21,4 17,8 20,0 80,1 0,8 159 - 0,2 256 1.013,9
11:55 21,4 17,8 20,0 80,1 0,8 160 - 0,2 230 1.014,0
11:54 21,4 18,0 20,1 80,9 0,8 164 - 0,2 192 1.014,0
11:53 21,3 17,8 19,9 80,4 0,6 168 - 0,2 179 1.014,0
11:52 21,3 17,7 19,9 80,1 0,8 176 - 0,2 184 1.014,0
11:51 21,3 17,7 19,9 80,1 0,9 186 - 0,2 190 1.014,1
11:50 21,3 17,7 19,9 80,1 0,8 192 - 0,2 194 1.014,1
11:49 21,3 17,8 20,0 80,7 0,9 190 - 0,2 193 1.014,1
11:48 21,3 18,0 20,1 81,3 1,0 183 - 0,2 186 1.014,1
11:47 21,3 18,0 20,1 81,3 1,1 176 - 0,2 186 1.014,1
11:46 21,3 18,0 20,1 81,3 1,2 170 - 0,2 186 1.014,0
11:45 21,3 18,0 20,1 81,3 1,3 169 - 0,2 188 1.014,1
11:44 21,3 18,0 20,1 81,3 1,1 177 - 0,2 192 1.014,0
11:43 21,3 18,0 20,1 81,3 0,5 191 - 0,2 195 1.014,0
11:42 21,3 18,0 20,1 81,3 0,9 201 - 0,2 204 1.014,0
11:41 21,3 18,0 20,1 81,3 1,7 204 - 0,2 215 1.014,0
11:39 21,3 18,0 20,1 81,3 1,5 203 - 0,2 216 1.014,0
11:38 21,3 18,0 20,1 81,3 1,1 198 - 0,2 227 1.014,0
11:37 21,3 18,0 20,1 81,3 1,3 187 - 0,2 244 1.014,0
11:36 21,3 18,0 20,1 81,3 1,0 176 - 0,2 280 1.014,0
11:35 21,3 18,2 20,3 82,3 1,0 172 - 0,2 321 1.013,9
11:34 21,2 18,1 20,2 82,4 0,9 173 - 0,2 357 1.014,0
11:33 21,2 18,1 20,2 82,4 1,0 174 - 0,2 359 1.013,9
11:32 21,2 18,1 20,2 82,4 1,1 173 - 0,2 326 1.013,9
11:31 21,1 18,0 20,1 82,4 1,0 178 - 0,2 307 1.013,9
11:30 21,1 18,0 20,1 82,4 0,9 185 - 0,2 306 1.013,9
11:29 21,0 17,9 20,0 82,4 0,9 189 - 0,2 293 1.013,9
11:28 21,0 17,9 20,0 82,4 1,2 195 - 0,2 271 1.013,9
11:27 20,9 17,8 19,9 82,4 1,5 203 - 0,2 271 1.013,9
11:26 20,9 17,9 20,0 83,0 1,9 207 - 0,2 297 1.013,9
11:25 20,9 18,0 20,1 83,6 1,9 208 - 0,2 314 1.013,9
11:24 20,9 18,0 20,1 83,6 1,6 207 - 0,2 315 1.013,8
11:23 20,8 17,9 20,0 83,6 1,3 206 - 0,2 313 1.013,8
11:22 20,8 17,9 20,0 83,6 1,1 206 - 0,2 324 1.013,8
11:21 20,7 17,8 19,8 83,6 1,1 205 - 0,2 314 1.013,8
11:20 20,7 17,8 19,8 83,6 1,2 204 - 0,2 303 1.013,8
11:19 20,7 17,8 19,8 83,6 1,1 202 - 0,2 283 1.013,8
11:18 20,7 18,0 20,0 84,5 1,1 200 - 0,2 287 1.013,8
11:17 20,6 17,9 19,9 84,8 1,1 198 - 0,2 289 1.013,8
11:16 20,6 17,9 19,9 84,8 1,2 196 - 0,2 270 1.013,8
11:15 20,6 17,9 19,9 84,8 1,1 196 - 0,2 243 1.013,8
11:14 20,5 17,8 19,8 84,8 1,0 194 - 0,2 239 1.013,8
11:13 20,5 17,8 19,8 84,8 0,8 192 - 0,2 238 1.013,8
11:12 20,5 17,8 19,8 84,8 1,0 190 - 0,2 234 1.013,9
11:11 20,4 17,7 19,7 84,8 1,4 188 - 0,2 238 1.013,8
11:10 20,4 17,7 19,7 84,8 2,1 187 - 0,2 233 1.013,8
11:09 20,4 17,7 19,7 84,8 2,3 189 - 0,2 223 1.013,8
11:08 20,4 17,7 19,7 84,8 1,9 192 - 0,2 208 1.013,8
11:07 20,4 17,7 19,7 84,8 1,5 194 - 0,2 201 1.013,9
11:06 20,4 17,9 19,9 85,7 1,6 197 - 0,2 204 1.013,9
11:05 20,3 17,9 19,8 85,9 1,5 199 - 0,2 202 1.013,9
11:04 20,3 17,9 19,8 85,9 1,7 201 - 0,2 195 1.013,9
11:03 20,3 17,9 19,8 85,9 1,9 201 - 0,2 182 1.013,9
11:02 20,3 17,9 19,8 85,9 1,8 202 - 0,2 166 1.013,9
11:01 20,3 17,9 19,8 85,9 2,0 203 - 0,2 163 1.013,9
11:00 20,3 17,9 19,8 85,9 2,3 205 - 0,2 170 1.013,8
 
10:59 20,3 17,9 19,8 85,9 2,2 205 - 0,2 174 1.013,9
10:58 20,3 17,9 19,8 85,9 1,9 205 - 0,2 175 1.013,8
10:57 20,3 17,9 19,8 85,9 1,8 205 - 0,2 169 1.013,9
10:56 20,3 17,9 19,8 85,9 1,8 205 - 0,2 182 1.013,8
10:55 20,2 17,8 19,7 85,9 1,8 208 - 0,2 198 1.013,8
10:54 20,2 17,8 19,7 85,9 1,8 211 - 0,2 192 1.013,8
10:53 20,2 17,8 19,7 85,9 1,9 212 - 0,2 188 1.013,8
10:52 20,2 17,8 19,7 85,9 2,3 212 - 0,2 193 1.013,8
10:51 20,2 17,8 19,7 85,9 2,7 211 - 0,2 202 1.013,8
10:50 20,2 17,8 19,7 85,9 2,6 210 - 0,2 204 1.013,8
10:49 20,2 17,8 19,7 85,9 2,3 210 - 0,2 204 1.013,8
10:48 20,2 17,8 19,7 85,9 2,2 210 - 0,2 213 1.013,8
10:47 20,2 17,9 19,8 86,9 2,1 210 - 0,2 232 1.013,8
10:46 20,2 17,8 19,7 86,3 2,1 214 - 0,2 240 1.013,8
10:45 20,2 18,0 19,9 87,1 2,2 220 - 0,2 239 1.013,8
10:44 20,2 18,0 19,9 87,1 2,4 225 - 0,2 244 1.013,8
10:43 20,1 17,9 19,8 87,1 2,5 230 - 0,2 238 1.013,8
10:42 20,1 17,7 19,6 86,2 2,8 234 - 0,2 236 1.013,8
10:41 20,1 17,9 19,8 87,1 2,8 237 - 0,2 263 1.013,8
10:40 20,1 17,9 19,8 87,1 2,6 239 - 0,2 285 1.013,7
10:39 20,1 17,9 19,8 87,1 2,3 237 - 0,2 245 1.013,7
10:38 20,0 17,8 19,7 87,1 2,2 233 - 0,2 229 1.013,7
10:37 20,0 17,8 19,7 87,1 2,2 230 - 0,2 232 1.013,7
10:36 19,9 17,7 19,6 87,1 2,2 225 - 0,2 241 1.013,8
10:35 19,9 17,7 19,6 87,1 2,1 221 - 0,2 241 1.013,7
10:34 19,9 17,7 19,6 87,1 2,2 218 - 0,2 221 1.013,7
10:33 19,9 17,8 19,6 87,7 1,9 218 - 0,2 241 1.013,7
10:32 19,8 17,8 19,6 88,3 1,5 219 - 0,2 249 1.013,7
10:31 19,8 17,8 19,6 88,3 2,1 221 - 0,2 258 1.013,7
10:30 19,8 17,8 19,6 88,3 2,8 225 - 0,2 271 1.013,7
10:29 19,8 17,8 19,6 88,3 3,0 228 - 0,2 271 1.013,7
10:28 19,7 17,7 19,5 88,3 2,7 227 - 0,2 242 1.013,7
10:27 19,7 17,7 19,5 88,3 2,6 225 - 0,2 245 1.013,6
10:26 19,7 17,7 19,5 88,3 2,5 223 - 0,2 277 1.013,6
10:25 19,6 17,6 19,4 88,3 2,9 221 - 0,2 295 1.013,6
10:24 19,6 17,6 19,4 88,3 3,4 220 - 0,2 257 1.013,6
10:23 19,6 17,7 19,5 88,7 3,4 218 - 0,2 244 1.013,6
10:22 19,7 17,9 19,7 89,5 2,9 218 - 0,2 261 1.013,6
10:21 19,6 17,8 19,6 89,5 2,2 218 - 0,2 245 1.013,6
10:20 19,6 17,8 19,6 89,5 2,1 217 - 0,2 231 1.013,5
10:19 19,6 17,8 19,6 89,5 2,2 215 - 0,2 229 1.013,5
10:18 19,6 17,8 19,6 89,5 2,3 212 - 0,2 216 1.013,5
10:17 19,6 17,8 19,6 89,5 2,5 210 - 0,2 193 1.013,5
10:16 19,6 17,8 19,6 89,5 2,7 209 - 0,2 175 1.013,5
10:15 19,6 17,7 19,5 88,9 2,9 209 - 0,2 145 1.013,5
10:14 19,6 17,6 19,4 88,3 3,1 210 - 0,2 129 1.013,5
10:13 19,6 17,8 19,6 89,4 2,9 211 - 0,2 126 1.013,6
10:12 19,6 17,8 19,6 89,5 2,5 213 - 0,2 124 1.013,5
10:11 19,6 17,8 19,6 89,5 2,3 214 - 0,2 126 1.013,5
10:10 19,6 17,8 19,6 89,5 2,7 215 - 0,2 150 1.013,5
10:09 19,6 17,8 19,6 89,5 2,9 216 - 0,2 158 1.013,5
10:08 19,6 17,7 19,5 88,7 3,1 216 - 0,2 175 1.013,5
10:07 19,6 17,6 19,4 88,3 3,2 219 - 0,2 191 1.013,5
10:05 19,6 17,6 19,4 88,3 3,5 223 - 0,2 181 1.013,4
10:04 19,6 17,6 19,4 88,3 3,6 225 - 0,2 181 1.013,4
10:03 19,6 17,6 19,4 88,3 3,7 226 - 0,2 181 1.013,4
10:02 19,6 17,6 19,4 88,3 3,1 227 - 0,2 178 1.013,4
10:01 19,6 17,6 19,4 88,3 2,8 226 - 0,2 169 1.013,4
10:00 19,6 17,6 19,4 88,3 2,9 223 - 0,2 169 1.013,3
 
09:59 19,6 17,6 19,4 88,3 2,8 220 - 0,2 164 1.013,4
09:58 19,6 17,7 19,5 88,9 2,5 222 - 0,2 162 1.013,3
09:57 19,6 17,8 19,6 89,5 2,6 227 - 0,2 149 1.013,3
09:56 19,6 17,8 19,6 89,5 2,9 232 - 0,2 145 1.013,3
09:55 19,6 17,8 19,6 89,5 3,1 235 - 0,2 158 1.013,3
09:54 19,5 17,7 19,5 89,5 3,3 235 - 0,2 148 1.013,3
09:53 19,6 17,8 19,6 89,5 3,7 234 - 0,2 120 1.013,3
09:52 19,6 17,8 19,6 89,5 3,8 232 - 0,2 100 1.013,3
09:51 19,6 17,8 19,6 89,5 4,1 231 - 0,2 89 1.013,3
09:50 19,6 17,8 19,6 89,5 4,2 230 - 0,2 83 1.013,3
09:49 19,7 17,9 19,7 89,5 4,5 230 - 0,2 82 1.013,3
09:48 19,7 17,9 19,7 89,5 4,2 230 - 0,2 79 1.013,3
09:47 19,7 17,9 19,7 89,5 3,5 230 - 0,2 82 1.013,3
09:46 19,7 17,9 19,7 89,5 2,3 227 - 0,2 115 1.013,3
09:45 19,7 17,9 19,7 89,5 1,8 223 - 0,2 146 1.013,3
09:44 19,6 17,7 19,4 88,6 1,7 220 - 0,2 155 1.013,3
09:43 19,6 17,8 19,6 89,4 1,8 218 - 0,2 154 1.013,3
09:42 19,6 17,6 19,4 88,3 2,0 216 - 0,2 146 1.013,3
09:41 19,6 17,6 19,4 88,3 2,0 217 - 0,2 145 1.013,3
09:40 19,6 17,6 19,4 88,3 2,0 216 - 0,2 146 1.013,3
09:39 19,7 17,7 19,5 88,3 1,8 214 - 0,2 138 1.013,3
09:38 19,6 17,6 19,4 88,3 1,5 208 - 0,2 142 1.013,3
09:37 19,6 17,6 19,4 88,3 1,2 201 - 0,2 139 1.013,3
09:36 19,6 17,6 19,4 88,3 1,2 196 - 0,2 136 1.013,3
09:35 19,6 17,6 19,4 88,3 0,9 194 - 0,2 150 1.013,3
09:34 19,5 17,5 19,3 88,3 1,2 192 - 0,2 146 1.013,3
09:33 19,5 17,5 19,3 88,3 1,8 189 - 0,2 160 1.013,3
09:32 19,6 17,6 19,4 88,3 2,3 188 - 0,2 156 1.013,3
09:31 19,6 17,6 19,4 88,3 2,3 191 - 0,2 145 1.013,3
09:30 19,6 17,6 19,4 88,3 2,0 196 - 0,2 142 1.013,3
09:29 19,6 17,6 19,4 88,3 1,6 197 - 0,2 119 1.013,3
09:28 19,6 17,6 19,4 88,3 1,6 197 - 0,2 121 1.013,3
09:27 19,6 17,6 19,4 88,3 1,5 198 - 0,2 137 1.013,3
09:26 19,6 17,6 19,4 88,3 1,2 201 - 0,2 147 1.013,3
09:25 19,5 17,5 19,3 88,3 1,3 202 - 0,2 169 1.013,3
09:24 19,5 17,5 19,3 88,3 1,4 201 - 0,2 199 1.013,3
09:23 19,5 17,5 19,3 88,3 1,7 201 - 0,2 240 1.013,3
09:22 19,5 17,5 19,3 88,3 2,1 203 - 0,2 247 1.013,3
09:21 19,5 17,5 19,3 88,3 2,1 205 - 0,2 181 1.013,2
09:15 19,6 17,4 19,2 87,1 2,0 206 - 0,2 175 1.013,1
09:14 19,6 17,4 19,2 87,1 1,8 206 - 0,2 157 1.013,1
09:13 19,6 17,4 19,2 87,1 1,7 205 - 0,2 192 1.013,1
09:12 19,6 17,4 19,2 87,1 1,7 204 - 0,2 214 1.013,1
09:11 19,6 17,4 19,2 87,1 1,5 205 - 0,2 232 1.013,1
09:10 19,5 17,3 19,1 87,1 1,2 206 - 0,2 286 1.013,1
09:09 19,5 17,3 19,1 87,1 1,1 205 - 0,2 259 1.013,1
09:08 19,5 17,3 19,1 87,1 1,1 203 - 0,2 202 1.013,1
09:07 19,4 17,2 19,0 87,1 1,4 202 - 0,2 151 1.013,1
09:06 19,5 17,3 19,1 87,1 1,9 199 - 0,2 185 1.013,1
09:05 19,5 17,3 19,1 87,1 2,0 196 - 0,2 282 1.013,1
09:04 19,5 17,3 19,1 87,1 1,7 194 - 0,2 296 1.013,1
09:03 19,5 17,3 19,1 87,1 1,6 192 - 0,2 279 1.013,1
09:02 19,5 17,3 19,1 87,1 1,4 190 - 0,2 264 1.013,1
09:01 19,4 17,3 19,1 87,5 1,0 189 - 0,2 263 1.013,1
09:00 19,4 17,4 19,2 88,3 1,0 193 - 0,2 262 1.013,0
 
08:59 19,4 17,4 19,2 88,3 1,1 197 - 0,2 260 1.013,0
08:58 19,3 17,3 19,1 88,3 0,8 195 - 0,2 257 1.013,0
08:57 19,3 17,3 19,1 88,3 0,8 193 - 0,2 241 1.013,0
08:56 19,3 17,3 19,1 88,3 0,8 194 - 0,2 238 1.013,1
08:55 19,2 17,2 19,0 88,3 1,0 194 - 0,2 231 1.013,1
08:54 19,2 17,2 19,0 88,3 0,9 192 - 0,2 236 1.013,1
08:53 19,2 17,2 19,0 88,3 1,0 189 - 0,2 238 1.013,0
08:52 19,1 17,1 18,9 88,3 1,1 189 - 0,2 234 1.013,0
08:51 19,1 17,1 18,9 88,3 1,1 191 - 0,2 242 1.013,0
08:50 19,1 17,1 18,9 88,3 1,0 190 - 0,2 236 1.013,0
08:49 19,0 17,0 18,8 88,3 0,9 185 - 0,2 227 1.013,0
08:48 19,0 17,0 18,8 88,3 1,0 182 - 0,2 222 1.013,0
08:47 19,0 17,0 18,8 88,3 0,7 183 - 0,2 216 1.013,0
08:46 18,9 16,9 18,7 88,3 0,8 186 - 0,2 215 1.013,0
08:45 18,9 16,9 18,7 88,3 1,1 189 - 0,2 224 1.013,0
08:44 18,9 16,9 18,7 88,3 1,7 192 - 0,2 223 1.013,0
08:43 18,8 16,8 18,6 88,3 1,6 196 - 0,2 220 1.013,0
08:42 18,8 16,8 18,6 88,3 1,8 198 - 0,2 218 1.013,0
08:41 18,8 16,8 18,6 88,3 1,8 198 - 0,2 213 1.013,0
08:40 18,8 17,0 18,7 89,3 1,7 197 - 0,2 214 1.013,1
08:39 18,8 17,0 18,7 89,5 1,5 196 - 0,2 212 1.013,1
08:38 18,8 17,0 18,7 89,5 1,5 197 - 0,2 204 1.013,1
08:37 18,7 16,9 18,6 89,5 1,4 199 - 0,2 203 1.013,1
08:36 18,7 16,9 18,6 89,5 1,6 202 - 0,2 206 1.013,1
08:35 18,7 16,8 18,5 88,6 1,9 205 - 0,2 196 1.013,1
08:34 18,7 16,9 18,6 89,3 2,0 208 - 0,2 198 1.013,1
08:33 18,7 16,8 18,5 88,4 2,0 211 - 0,2 198 1.013,1
08:32 18,7 16,7 18,5 88,3 2,0 212 - 0,2 192 1.013,1
08:31 18,6 16,7 18,4 88,8 2,2 212 - 0,2 188 1.013,1
08:30 18,6 16,8 18,5 89,5 2,2 211 - 0,2 191 1.013,1
08:29 18,6 16,8 18,5 89,5 1,9 210 - 0,2 188 1.013,1
08:28 18,6 16,8 18,5 89,5 1,8 208 - 0,2 183 1.013,1
08:27 18,6 16,8 18,5 89,5 1,9 205 - 0,2 181 1.013,1
08:26 18,6 16,8 18,5 89,5 1,8 201 - 0,2 177 1.013,1
08:25 18,5 16,7 18,4 89,5 1,7 201 - 0,2 176 1.013,1
08:24 18,5 16,7 18,4 89,5 2,1 201 - 0,2 178 1.013,1
08:23 18,5 16,7 18,4 89,5 2,2 201 - 0,2 172 1.013,1
08:22 18,5 16,7 18,4 89,5 1,9 201 - 0,2 169 1.013,1
08:21 18,4 16,6 18,3 89,5 1,7 204 - 0,2 168 1.013,0
08:20 18,4 16,6 18,3 89,5 1,7 207 - 0,2 165 1.013,0
08:19 18,4 16,6 18,3 89,5 1,8 207 - 0,2 162 1.013,0
08:18 18,4 16,6 18,3 89,5 2,1 205 - 0,2 162 1.013,0
08:17 18,4 16,6 18,3 89,5 2,2 203 - 0,2 157 1.013,0
08:16 18,4 16,6 18,3 89,5 2,3 202 - 0,2 155 1.013,0
08:15 18,4 16,6 18,3 89,5 2,1 199 - 0,2 154 1.013,0
08:14 18,4 16,6 18,3 89,5 2,0 196 - 0,2 154 1.013,0
08:13 18,3 16,5 18,2 89,5 1,7 194 - 0,2 151 1.013,0
08:12 18,3 16,5 18,2 89,5 1,9 196 - 0,2 149 1.013,0
08:11 18,3 16,5 18,2 89,5 2,2 201 - 0,2 146 1.013,0
08:10 18,3 16,5 18,2 89,5 2,3 204 - 0,2 144 1.013,0
08:09 18,3 16,5 18,2 89,5 2,3 206 - 0,2 143 1.013,1
08:08 18,3 16,5 18,2 89,5 2,3 207 - 0,2 142 1.013,1
08:07 18,3 16,5 18,2 89,5 2,0 208 - 0,2 140 1.013,1
08:06 18,3 16,5 18,2 89,5 2,3 207 - 0,2 137 1.013,1
08:05 18,3 16,5 18,2 89,5 2,6 205 - 0,2 135 1.013,0
08:04 18,2 16,4 18,1 89,5 2,4 202 - 0,2 133 1.013,1
08:03 18,2 16,4 18,1 89,5 2,2 200 - 0,2 132 1.013,1
08:02 18,2 16,5 18,1 89,9 2,1 198 - 0,2 131 1.013,1
08:01 18,2 16,7 17,7 90,7 2,2 197 - 0,2 128 1.013,0
08:00 18,1 16,6 17,6 90,7 2,3 196 - 0,2 123 1.013,0
 
07:59 18,1 16,6 17,6 90,7 2,2 195 - 0,2 122 1.013,0
07:58 18,1 16,6 17,6 90,7 2,2 195 - 0,2 120 1.013,0
07:57 18,1 16,6 17,6 90,7 2,2 196 - 0,2 120 1.013,1
07:56 18,0 16,5 18,0 90,7 2,2 198 - 0,2 119 1.013,1
07:55 18,0 16,5 18,0 90,7 2,0 197 - 0,2 116 1.013,0
07:54 18,0 16,5 18,0 90,7 1,4 196 - 0,2 114 1.013,0
07:53 17,9 16,4 17,9 90,7 1,0 196 - 0,2 111 1.013,0
07:52 17,9 16,4 17,9 90,7 1,2 198 - 0,2 109 1.013,0
07:51 17,8 16,3 17,8 90,7 1,3 199 - 0,2 107 1.013,0
07:50 17,8 16,3 17,8 90,7 1,3 201 - 0,2 104 1.013,0
07:49 17,8 16,3 17,8 90,7 1,2 205 - 0,2 102 1.013,0
07:48 17,7 16,2 17,7 90,7 0,8 207 - 0,2 100 1.013,1
07:47 17,7 16,2 17,7 90,7 0,6 206 - 0,2 99 1.013,1
07:46 17,7 16,2 17,7 90,7 0,6 202 - 0,2 97 1.013,1
07:45 17,6 16,1 17,6 90,7 0,8 195 - 0,2 95 1.013,1
07:44 17,6 16,2 17,1 91,2 0,9 189 - 0,2 94 1.013,1
07:43 17,5 16,2 17,1 92,0 0,7 189 - 0,2 91 1.013,1
07:42 17,5 16,1 17,0 91,2 0,5 191 - 0,2 88 1.013,1
07:41 17,4 16,0 16,9 91,7 0,6 194 - 0,2 87 1.013,1
07:40 17,4 15,9 17,4 90,9 1,1 198 - 0,2 85 1.013,1
07:39 17,3 15,8 17,3 90,7 1,2 202 - 0,2 84 1.013,1
07:38 17,3 15,8 17,3 90,7 1,0 205 - 0,2 83 1.013,1
07:37 17,3 15,8 17,3 90,7 0,8 207 - 0,2 81 1.013,1
07:36 17,3 15,8 17,3 90,7 0,7 205 - 0,2 79 1.013,2
07:35 17,2 15,7 17,2 90,7 0,7 200 - 0,2 77 1.013,2
07:34 17,2 15,7 17,2 91,0 0,6 193 - 0,2 74 1.013,2
07:33 17,2 15,9 16,8 92,0 0,4 186 - 0,2 72 1.013,2
07:32 17,2 15,9 16,8 92,0 0,5 175 - 0,2 71 1.013,2
07:31 17,1 15,8 16,7 92,0 0,5 163 - 0,2 70 1.013,1
07:30 17,1 15,8 16,7 92,0 0,4 155 - 0,2 69 1.013,1
07:29 17,1 15,8 16,7 92,0 0,6 150 - 0,2 66 1.013,2
07:28 17,0 15,7 16,6 92,0 0,7 147 - 0,2 64 1.013,1
07:27 17,0 15,7 16,6 92,0 0,6 144 - 0,2 62 1.013,1
07:26 16,9 15,6 16,5 92,0 0,5 141 - 0,2 62 1.013,1
07:25 16,9 15,6 16,5 92,0 0,6 136 - 0,2 58 1.013,1
07:24 16,8 15,5 16,4 92,0 0,7 130 - 0,2 56 1.013,1
07:23 16,8 15,5 16,4 92,0 0,6 123 - 0,2 54 1.013,1
07:22 16,8 15,5 16,4 92,0 0,7 117 - 0,2 53 1.013,1
07:21 16,8 15,5 16,4 92,0 0,9 114 - 0,2 52 1.013,1
07:20 16,7 15,4 16,3 92,0 1,0 116 - 0,2 49 1.013,1
07:19 16,7 15,4 16,3 92,0 1,0 120 - 0,2 47 1.013,1
07:18 16,7 15,4 16,3 92,0 0,9 124 - 0,2 45 1.013,1
07:17 16,7 15,4 16,3 92,0 0,8 126 - 0,2 44 1.013,0
07:16 16,6 15,3 16,2 92,0 0,9 127 - 0,2 43 1.013,0
07:15 16,6 15,3 16,2 92,0 1,0 125 - 0,2 42 1.013,0
07:14 16,6 15,3 16,2 92,0 0,9 124 - 0,2 40 1.013,0
07:13 16,6 15,3 16,2 92,0 0,9 121 - 0,2 39 1.013,0
07:12 16,6 15,3 16,2 92,0 0,8 120 - 0,2 37 1.013,0
07:11 16,5 15,2 16,1 92,0 0,9 121 - 0,2 36 1.013,1
07:10 16,5 15,2 16,1 92,0 1,0 123 - 0,2 35 1.013,1
07:09 16,5 15,2 16,1 92,0 1,1 122 - 0,2 34 1.013,1
07:08 16,4 15,1 16,0 92,0 1,3 119 - 0,2 33 1.013,1
07:07 16,4 15,1 16,0 92,0 1,3 115 - 0,2 32 1.013,1
07:06 16,4 15,1 16,0 92,0 1,2 112 - 0,2 31 1.013,1
07:05 16,4 15,1 16,0 92,0 1,1 109 - 0,2 30 1.013,1
07:04 16,4 15,1 16,0 92,0 1,1 107 - 0,0 29 1.013,1
07:03 16,4 15,1 16,0 92,0 1,3 105 - 0,0 26 1.013,1
07:02 16,4 15,1 16,0 92,0 1,4 106 - 0,0 23 1.013,1
07:01 16,3 15,0 15,9 92,0 1,3 107 - 0,0 23 1.013,0
07:00 16,3 15,0 15,9 92,0 1,0 107 - 0,0 20 1.013,0
 
06:59 16,3 15,0 15,9 92,0 0,9 108 - 0,0 19 1.013,0
06:58 16,3 15,0 15,9 92,0 0,7 111 - 0,0 18 1.013,0
06:57 16,3 15,0 15,9 92,0 0,6 115 - 0,0 17 1.013,0
06:56 16,3 15,0 15,9 92,0 0,7 118 - 0,0 16 1.013,0
06:55 16,3 15,0 15,9 92,0 0,8 121 - 0,0 14 1.013,0
06:54 16,3 15,0 15,9 92,0 0,8 127 - 0,0 12 1.013,0
06:53 16,3 15,0 15,9 92,0 0,8 131 - 0,0 12 1.012,9
06:52 16,3 15,0 15,9 92,0 0,8 132 - 0,0 11 1.012,9
06:51 16,3 15,0 15,9 92,0 0,9 131 - 0,0 11 1.012,9
06:50 16,3 15,0 15,9 92,0 0,8 132 - 0,0 9 1.012,9
06:49 16,3 15,0 15,9 92,0 0,8 131 - 0,0 9 1.012,9
06:48 16,3 15,0 15,9 92,0 0,7 125 - 0,0 9 1.012,9
06:47 16,3 15,0 15,9 92,0 0,6 115 - 0,0 8 1.012,9
06:46 16,3 15,0 15,9 92,0 0,5 111 - 0,0 7 1.012,9
06:45 16,3 15,0 15,9 92,0 0,6 109 - 0,0 7 1.012,9
06:44 16,3 15,0 15,9 92,0 0,8 105 - 0,0 7 1.012,9
06:43 16,3 15,0 15,9 92,0 0,9 102 - 0,0 7 1.012,9
06:42 16,4 15,1 16,0 92,0 0,9 100 - 0,0 6 1.012,9
06:41 16,4 15,1 16,0 92,0 0,9 101 - 0,0 5 1.012,9
06:40 16,3 15,0 15,9 92,0 1,1 104 - 0,0 5 1.012,9
06:39 16,3 15,0 15,9 92,0 1,1 104 - 0,0 5 1.012,9
06:38 16,3 15,0 15,9 92,0 1,1 106 - 0,0 5 1.012,9
06:37 16,3 15,0 15,9 92,0 1,3 110 - 0,0 5 1.012,9
06:36 16,3 15,0 15,9 92,0 1,5 114 - 0,0 5 1.012,9
06:35 16,3 15,0 15,9 92,0 1,5 115 - 0,0 5 1.012,9
06:34 16,3 15,0 15,9 92,0 1,4 114 - 0,0 2 1.012,9
06:33 16,3 15,0 15,9 92,0 1,3 114 - 0,0 0 1.012,9
06:32 16,3 15,0 15,9 92,0 1,2 119 - 0,0 0 1.012,9
06:31 16,3 15,0 15,9 92,0 1,2 123 - 0,0 0 1.013,0
06:30 16,3 15,0 15,9 92,0 0,8 123 - 0,0 0 1.013,0
06:29 16,3 15,0 15,9 92,0 0,7 120 - 0,0 0 1.013,0
06:28 16,3 15,0 15,9 92,0 0,5 118 - 0,0 0 1.013,0
06:27 16,3 15,0 15,9 92,0 0,7 114 - 0,0 0 1.013,0
06:26 16,3 15,0 15,9 92,0 0,8 108 - 0,0 0 1.013,0
06:25 16,3 15,0 15,9 92,0 1,0 105 - 0,0 0 1.013,1
06:24 16,3 15,0 15,9 92,0 1,0 108 - 0,0 0 1.013,0
06:23 16,3 15,0 15,9 92,0 0,9 111 - 0,0 0 1.013,0
06:22 16,3 15,0 15,9 92,0 0,8 114 - 0,0 0 1.013,0
06:21 16,3 15,0 15,9 92,0 0,7 112 - 0,0 0 1.013,0
06:20 16,3 15,0 15,9 92,0 0,7 107 - 0,0 0 1.013,1
06:19 16,3 15,0 15,9 92,0 0,7 101 - 0,0 0 1.013,1
06:18 16,3 15,0 15,9 92,0 0,7 98 - 0,0 0 1.013,1
06:17 16,3 15,0 15,9 92,0 0,6 99 - 0,0 0 1.013,1
06:16 16,3 15,0 15,9 92,0 0,6 108 - 0,0 0 1.013,1
06:15 16,3 15,0 15,9 92,0 0,6 121 - 0,0 0 1.013,1
06:14 16,3 15,0 15,9 92,0 0,6 132 - 0,0 0 1.013,1
06:13 16,3 15,0 15,9 92,0 0,7 134 - 0,0 0 1.013,1
06:12 16,3 15,0 15,9 92,0 0,5 129 - 0,0 0 1.013,1
06:11 16,3 15,0 15,9 92,0 0,5 124 - 0,0 0 1.013,2
06:10 16,3 15,0 15,9 92,0 0,7 120 - 0,0 0 1.013,2
06:09 16,3 15,0 15,9 92,0 0,8 116 - 0,0 0 1.013,2
06:08 16,3 15,0 15,9 92,0 0,6 118 - 0,0 0 1.013,2
06:07 16,3 15,0 15,9 92,0 0,6 127 - 0,0 0 1.013,2
06:06 16,3 15,0 15,9 92,0 0,6 143 - 0,0 0 1.013,2
06:05 16,3 15,0 15,9 92,0 0,6 152 - 0,0 0 1.013,2
06:04 16,3 15,0 15,9 92,0 0,8 152 - 0,0 0 1.013,2
06:03 16,3 15,0 15,9 92,0 0,8 150 - 0,0 0 1.013,2
06:02 16,3 15,0 15,9 92,0 0,8 148 - 0,0 0 1.013,2
06:01 16,3 15,0 15,9 92,0 0,9 145 - 0,0 0 1.013,2
06:00 16,3 15,0 15,9 92,0 0,9 138 - 0,0 0 1.013,2
 
05:59 16,3 15,0 15,9 92,0 0,8 132 - 0,0 0 1.013,2
05:58 16,3 15,0 15,9 92,0 0,7 131 - 0,0 0 1.013,2
05:57 16,3 15,0 15,9 92,0 0,6 132 - 0,0 0 1.013,2
05:56 16,3 15,0 15,9 92,0 0,4 128 - 0,0 0 1.013,2
05:55 16,3 15,0 15,9 92,0 0,4 125 - 0,0 0 1.013,2
05:54 16,3 15,0 15,9 92,0 0,5 119 - 0,0 0 1.013,2
05:53 16,3 15,0 15,9 92,0 0,6 109 - 0,0 0 1.013,2
05:52 16,3 14,9 16,3 91,3 0,7 98 - 0,0 0 1.013,2
05:51 16,3 14,8 16,2 90,7 0,8 91 - 0,0 0 1.013,2
05:50 16,3 14,8 16,2 90,7 1,0 88 - 0,0 0 1.013,2
05:49 16,3 14,8 16,2 90,7 0,9 89 - 0,0 0 1.013,2
05:48 16,3 14,8 16,2 90,7 0,9 89 - 0,0 0 1.013,2
05:47 16,3 14,8 16,2 90,7 1,0 91 - 0,0 0 1.013,2
05:46 16,3 14,8 16,2 90,7 1,0 95 - 0,0 0 1.013,2
05:45 16,3 14,8 16,2 90,7 0,9 98 - 0,0 0 1.013,2
05:44 16,3 14,8 16,2 90,7 0,8 101 - 0,0 0 1.013,2
05:43 16,3 14,8 16,2 90,7 0,8 105 - 0,0 0 1.013,2
05:42 16,3 14,8 16,2 90,7 1,0 108 - 0,0 0 1.013,2
05:41 16,3 14,8 16,2 90,7 1,0 112 - 0,0 0 1.013,2
05:40 16,3 14,8 16,2 90,7 1,1 115 - 0,0 0 1.013,2
05:39 16,3 14,8 16,2 90,7 1,1 117 - 0,0 0 1.013,3
05:38 16,3 14,8 16,2 90,7 1,1 118 - 0,0 0 1.013,3
05:37 16,3 14,8 16,2 90,7 0,7 117 - 0,0 0 1.013,3
05:35 16,3 14,8 16,2 90,7 0,6 117 - 0,0 0 1.013,3
05:34 16,3 14,8 16,2 90,7 0,5 119 - 0,0 0 1.013,3
05:33 16,3 14,8 16,2 90,7 0,7 121 - 0,0 0 1.013,3
05:32 16,4 14,9 16,3 90,7 0,8 120 - 0,0 0 1.013,3
05:31 16,4 14,9 16,3 90,7 0,6 120 - 0,0 0 1.013,2
05:30 16,4 14,9 16,3 90,7 0,2 124 - 0,0 0 1.013,3
05:29 16,4 14,9 16,3 90,7 0,0 136 - 0,0 0 1.013,3
05:28 16,4 14,9 16,3 90,7 0,1 153 - 0,0 0 1.013,3
05:27 16,4 14,9 16,3 90,7 0,2 163 - 0,0 0 1.013,3
05:26 16,4 14,9 16,3 90,7 0,5 166 - 0,0 0 1.013,3
05:25 16,4 14,9 16,3 90,7 0,6 169 - 0,0 0 1.013,3
05:24 16,4 14,9 16,3 90,7 0,6 170 - 0,0 0 1.013,3
05:23 16,5 15,0 16,4 90,7 0,6 173 - 0,0 0 1.013,3
05:22 16,5 15,0 16,4 90,7 0,6 175 - 0,0 0 1.013,3
05:21 16,5 15,0 16,4 90,7 0,7 175 - 0,0 0 1.013,3
05:20 16,5 15,0 16,4 90,7 0,6 170 - 0,0 0 1.013,3
05:19 16,5 15,0 16,4 90,7 0,6 161 - 0,0 0 1.013,3
05:18 16,5 15,0 16,4 90,7 0,6 150 - 0,0 0 1.013,3
05:17 16,5 15,0 16,4 90,7 0,7 138 - 0,0 0 1.013,2
05:16 16,5 15,0 16,4 90,7 0,7 128 - 0,0 0 1.013,2
05:15 16,5 15,0 16,4 90,7 0,7 119 - 0,0 0 1.013,2
05:14 16,5 15,0 16,4 90,7 0,8 113 - 0,0 0 1.013,2
05:13 16,6 15,1 16,5 90,7 0,9 108 - 0,0 0 1.013,2
05:12 16,6 15,1 16,5 90,7 1,0 102 - 0,0 0 1.013,2
05:11 16,6 15,1 16,5 90,7 1,1 97 - 0,0 0 1.013,1
05:10 16,6 15,1 16,5 90,7 1,0 96 - 0,0 0 1.013,1
05:09 16,6 15,1 16,5 90,7 1,1 97 - 0,0 0 1.013,2
05:08 16,6 15,1 16,5 90,7 1,3 95 - 0,0 0 1.013,2
05:07 16,6 15,1 16,5 90,7 1,2 93 - 0,0 0 1.013,3
05:06 16,6 15,1 16,5 90,7 0,9 96 - 0,0 0 1.013,3
05:05 16,6 15,1 16,5 90,7 0,7 101 - 0,0 0 1.013,3
05:04 16,6 15,1 16,5 90,7 0,7 102 - 0,0 0 1.013,3
05:03 16,6 15,1 16,5 90,7 1,0 100 - 0,0 0 1.013,3
05:02 16,6 15,1 16,5 90,7 1,2 100 - 0,0 0 1.013,3
05:01 16,6 15,1 16,5 90,7 1,4 102 - 0,0 0 1.013,3
05:00 16,6 15,1 16,5 90,7 1,4 101 - 0,0 0 1.013,3
 
04:59 16,6 15,1 16,5 90,7 1,4 99 - 0,0 0 1.013,3
04:58 16,6 15,1 16,5 90,7 1,3 99 - 0,0 0 1.013,4
04:57 16,6 15,1 16,5 90,7 1,2 103 - 0,0 0 1.013,4
04:56 16,6 15,1 16,5 90,7 1,0 108 - 0,0 0 1.013,4
04:55 16,6 15,1 16,5 90,7 0,8 112 - 0,0 0 1.013,4
04:54 16,6 15,1 16,5 90,7 0,8 116 - 0,0 0 1.013,4
04:53 16,7 15,2 16,7 90,7 0,8 120 - 0,0 0 1.013,4
04:52 16,7 15,0 16,5 89,8 0,8 122 - 0,0 0 1.013,4
04:51 16,7 15,0 16,5 89,5 0,6 122 - 0,0 0 1.013,4
04:50 16,7 15,0 16,5 89,5 0,4 120 - 0,0 0 1.013,4
04:49 16,7 15,0 16,5 89,5 0,2 124 - 0,0 0 1.013,4
04:48 16,7 15,0 16,5 89,5 0,1 265 - 0,0 0 1.013,4
04:47 16,7 15,0 16,5 89,5 0,3 303 - 0,0 0 1.013,4
04:46 16,7 15,0 16,5 89,5 0,5 323 - 0,0 0 1.013,4
04:45 16,7 15,0 16,5 89,5 0,4 351 - 0,0 0 1.013,4
04:44 16,7 15,0 16,5 89,5 0,4 49 - 0,0 0 1.013,4
04:43 16,7 15,0 16,5 89,5 0,6 85 - 0,0 0 1.013,4
04:42 16,7 15,0 16,5 89,5 0,6 96 - 0,0 0 1.013,4
04:41 16,7 15,0 16,5 89,5 0,5 102 - 0,0 0 1.013,4
04:40 16,7 15,0 16,5 89,5 0,5 111 - 0,0 0 1.013,4
04:39 16,7 15,0 16,5 89,5 0,5 118 - 0,0 0 1.013,4
04:38 16,7 15,0 16,5 89,5 0,5 120 - 0,0 0 1.013,4
04:37 16,8 15,1 16,6 89,5 0,5 124 - 0,0 0 1.013,4
04:36 16,7 15,0 16,5 89,5 0,4 134 - 0,0 0 1.013,4
04:35 16,8 15,1 16,6 89,5 0,1 144 - 0,0 0 1.013,3
04:34 16,8 15,1 16,6 89,5 0,2 149 - 0,0 0 1.013,3
04:33 16,8 15,1 16,6 89,5 0,3 149 - 0,0 0 1.013,3
04:32 16,8 15,1 16,6 89,5 0,4 158 - 0,0 0 1.013,3
04:31 16,8 15,1 16,6 89,5 0,4 167 - 0,0 0 1.013,3
04:30 16,8 15,1 16,6 89,5 0,3 170 - 0,0 0 1.013,3
04:29 16,8 15,1 16,6 89,5 0,4 183 - 0,0 0 1.013,3
04:28 16,8 15,1 16,6 89,5 0,2 200 - 0,0 0 1.013,3
04:27 16,8 15,1 16,6 89,5 0,1 208 - 0,0 0 1.013,3
04:26 16,8 15,1 16,6 89,5 0,3 218 - 0,0 0 1.013,4
04:25 16,8 15,1 16,6 89,5 0,6 233 - 0,0 0 1.013,4
04:24 16,8 15,1 16,6 89,5 0,4 239 - 0,0 0 1.013,4
04:23 16,8 15,1 16,6 89,5 0,5 231 - 0,0 0 1.013,4
04:22 16,8 15,1 16,6 89,5 0,5 220 - 0,0 0 1.013,4
04:21 16,8 15,1 16,6 89,5 0,3 200 - 0,0 0 1.013,4
04:20 16,8 15,1 16,6 89,5 0,5 182 - 0,0 0 1.013,4
04:19 16,9 15,2 16,7 89,5 0,5 172 - 0,0 0 1.013,3
04:18 16,9 15,2 16,7 89,5 0,3 156 - 0,0 0 1.013,3
04:17 16,9 15,2 16,7 89,5 0,2 132 - 0,0 0 1.013,3
04:16 16,9 15,2 16,7 89,5 0,3 94 - 0,0 0 1.013,3
04:15 16,9 15,2 16,7 89,5 0,4 0 - 0,0 0 1.013,3
04:14 16,8 15,1 16,6 89,5 0,3 325 - 0,0 0 1.013,3
04:13 16,9 15,2 16,7 89,5 0,1 302 - 0,0 0 1.013,3
04:12 16,9 15,2 16,7 89,5 0,5 282 - 0,0 0 1.013,3
04:11 16,9 15,2 16,7 89,5 0,6 278 - 0,0 0 1.013,2
04:10 16,9 15,2 16,7 89,5 0,7 284 - 0,0 0 1.013,2
04:09 16,9 15,2 16,7 89,5 0,3 293 - 0,0 0 1.013,2
04:08 16,9 15,2 16,7 89,5 0,3 308 - 0,0 0 1.013,3
04:07 16,9 15,2 16,7 89,5 0,4 97 - 0,0 0 1.013,3
04:06 16,9 15,2 16,7 89,5 0,3 119 - 0,0 0 1.013,3
04:05 16,9 15,2 16,7 89,5 0,2 131 - 0,0 0 1.013,4
04:04 16,9 15,2 16,7 89,5 0,5 151 - 0,0 0 1.013,4
04:03 16,9 15,2 16,7 89,5 0,5 164 - 0,0 0 1.013,4
04:01 16,9 15,1 16,6 89,0 0,3 170 - 0,0 0 1.013,4
04:00 16,9 15,0 16,6 88,3 0,3 169 - 0,0 0 1.013,4
 
03:59 16,9 15,0 16,6 88,3 0,5 161 - 0,0 0 1.013,4
03:58 17,0 15,1 16,7 88,3 0,7 154 - 0,0 0 1.013,4
03:57 17,0 15,1 16,7 88,3 0,5 152 - 0,0 0 1.013,4
03:56 17,0 15,1 16,7 88,3 0,5 149 - 0,0 0 1.013,4
03:55 17,0 15,1 16,7 88,3 0,4 142 - 0,0 0 1.013,3
03:54 17,0 15,1 16,7 88,3 0,4 131 - 0,0 0 1.013,3
03:53 17,0 15,1 16,7 88,3 0,5 123 - 0,0 0 1.013,3
03:52 17,0 15,1 16,7 88,3 0,4 108 - 0,0 0 1.013,3
03:51 17,1 15,2 16,8 88,3 0,3 89 - 0,0 0 1.013,3
03:50 17,1 15,2 16,8 88,3 0,4 78 - 0,0 0 1.013,3
03:49 17,1 15,2 16,8 88,3 0,4 81 - 0,0 0 1.013,3
03:48 17,1 15,2 16,8 88,3 0,3 95 - 0,0 0 1.013,3
03:47 17,1 15,2 16,8 88,3 0,4 106 - 0,0 0 1.013,3
03:46 17,1 15,2 16,8 88,3 0,4 115 - 0,0 0 1.013,3
03:45 17,1 15,2 16,8 88,3 0,2 64 - 0,0 0 1.013,3
03:44 17,1 15,2 16,8 88,3 0,4 34 - 0,0 0 1.013,3
03:43 17,1 15,2 16,8 88,3 0,4 34 - 0,0 0 1.013,3
03:42 17,1 15,2 16,8 88,3 0,3 36 - 0,0 0 1.013,3
03:41 17,1 15,2 16,8 88,3 0,4 58 - 0,0 0 1.013,2
03:40 17,1 15,2 16,8 88,3 0,1 89 - 0,0 0 1.013,2
03:39 17,1 15,2 16,8 88,3 0,2 95 - 0,0 0 1.013,2
03:38 17,1 15,2 16,8 88,3 0,5 92 - 0,0 0 1.013,2
03:37 17,1 15,2 16,8 88,3 0,7 86 - 0,0 0 1.013,2
03:36 17,1 15,2 16,8 88,3 0,5 76 - 0,0 0 1.013,2
03:35 17,1 15,2 16,8 88,3 0,5 59 - 0,0 0 1.013,1
03:34 17,1 15,2 16,8 88,3 0,2 27 - 0,0 0 1.013,1
03:33 17,1 15,2 16,8 88,3 0,2 4 - 0,0 0 1.013,2
03:32 17,1 15,2 16,8 88,3 0,6 348 - 0,0 0 1.013,2
03:31 17,1 15,2 16,8 88,3 0,4 335 - 0,0 0 1.013,2
03:30 17,1 15,2 16,8 88,3 0,2 328 - 0,0 0 1.013,2
03:29 17,1 15,2 16,8 88,3 0,2 331 - 0,0 0 1.013,2
03:28 17,1 15,2 16,8 88,3 0,6 334 - 0,0 0 1.013,2
03:27 17,1 15,2 16,8 88,3 0,7 336 - 0,0 0 1.013,2
03:26 17,1 15,2 16,8 88,3 0,4 336 - 0,0 0 1.013,2
03:25 17,2 15,3 16,9 88,3 0,2 95 - 0,0 0 1.013,2
03:24 17,1 15,2 16,8 88,3 0,6 116 - 0,0 0 1.013,2
03:23 17,2 15,3 16,9 88,3 0,7 115 - 0,0 0 1.013,2
03:22 17,2 15,3 16,9 88,3 0,8 106 - 0,0 0 1.013,2
03:21 17,2 15,3 16,9 88,3 0,5 72 - 0,0 0 1.013,2
03:20 17,2 15,3 16,9 88,3 0,6 351 - 0,0 0 1.013,3
03:19 17,2 15,3 16,9 88,3 1,0 313 - 0,0 0 1.013,3
03:18 17,2 15,3 16,9 88,3 0,6 297 - 0,0 0 1.013,3
03:17 17,2 15,3 16,9 88,3 0,6 282 - 0,0 0 1.013,3
03:16 17,2 15,3 16,9 88,3 0,4 265 - 0,0 0 1.013,3
03:15 17,2 15,3 16,9 88,3 0,3 250 - 0,0 0 1.013,3
03:14 17,2 15,3 16,9 88,3 0,5 234 - 0,0 0 1.013,2
03:13 17,2 15,3 16,9 88,3 0,6 223 - 0,0 0 1.013,2
03:12 17,2 15,3 16,9 88,3 0,3 218 - 0,0 0 1.013,2
03:11 17,2 15,3 16,9 88,3 0,5 185 - 0,0 0 1.013,2
03:10 17,2 15,3 16,9 88,3 0,1 131 - 0,0 0 1.013,2
03:09 17,3 15,3 17,0 88,3 0,2 126 - 0,0 0 1.013,2
03:08 17,3 15,3 17,0 88,3 0,6 132 - 0,0 0 1.013,2
03:07 17,3 15,3 17,0 88,3 0,9 141 - 0,0 0 1.013,2
03:06 17,3 15,3 17,0 88,3 0,5 160 - 0,0 0 1.013,2
03:05 17,3 15,3 17,0 88,3 0,4 193 - 0,0 0 1.013,2
03:04 17,3 15,3 17,0 88,3 0,4 214 - 0,0 0 1.013,2
03:03 17,3 15,3 17,0 88,3 0,4 213 - 0,0 0 1.013,2
03:02 17,3 15,3 17,0 88,3 0,3 173 - 0,0 0 1.013,2
03:01 17,3 15,3 17,0 88,3 0,3 143 - 0,0 0 1.013,2
03:00 17,3 15,3 17,0 88,3 0,9 134 - 0,0 0 1.013,2
 
02:59 17,3 15,3 17,0 88,3 0,5 119 - 0,0 0 1.013,2
02:58 17,3 15,3 17,0 88,3 0,2 111 - 0,0 0 1.013,3
02:57 17,4 15,4 17,1 88,3 0,1 110 - 0,0 0 1.013,3
02:56 17,4 15,4 17,1 88,3 0,6 112 - 0,0 0 1.013,3
02:55 17,4 15,3 17,0 87,6 0,6 114 - 0,0 0 1.013,3
02:54 17,4 15,4 17,0 88,1 0,4 114 - 0,0 0 1.013,3
02:53 17,4 15,4 17,1 88,3 0,3 115 - 0,0 0 1.013,3
02:52 17,4 15,4 17,0 88,1 0,5 121 - 0,0 0 1.013,3
02:51 17,4 15,2 16,9 87,1 0,5 124 - 0,0 0 1.013,3
02:50 17,4 15,2 16,9 87,1 0,5 123 - 0,0 0 1.013,3
02:49 17,4 15,2 16,9 87,1 0,5 124 - 0,0 0 1.013,3
02:48 17,4 15,2 16,9 87,1 0,4 124 - 0,0 0 1.013,3
02:47 17,4 15,2 16,9 87,1 0,3 124 - 0,0 0 1.013,3
02:46 17,4 15,2 16,9 87,1 0,4 123 - 0,0 0 1.013,3
02:45 17,4 15,2 16,9 87,1 0,4 121 - 0,0 0 1.013,3
02:44 17,5 15,3 17,0 87,1 0,4 120 - 0,0 0 1.013,3
02:43 17,5 15,3 17,0 87,1 0,1 119 - 0,0 0 1.013,3
02:42 17,5 15,3 17,0 87,1 0,1 118 - 0,0 0 1.013,3
02:41 17,5 15,3 17,0 87,1 0,3 111 - 0,0 0 1.013,3
02:40 17,5 15,3 17,0 87,1 0,6 96 - 0,0 0 1.013,3
02:39 17,5 15,3 17,0 87,1 0,3 87 - 0,0 0 1.013,3
02:38 17,5 15,3 17,0 87,1 0,3 89 - 0,0 0 1.013,3
02:37 17,6 15,4 17,1 87,1 0,4 90 - 0,0 0 1.013,3
02:36 17,6 15,4 17,1 87,1 0,5 88 - 0,0 0 1.013,4
02:35 17,6 15,4 17,1 87,1 0,6 88 - 0,0 0 1.013,4
02:34 17,6 15,4 17,1 87,1 0,4 95 - 0,0 0 1.013,4
02:33 17,6 15,4 17,1 87,1 0,4 101 - 0,0 0 1.013,4
02:32 17,6 15,4 17,1 87,1 0,4 103 - 0,0 0 1.013,4
02:31 17,6 15,4 17,1 87,1 0,6 104 - 0,0 0 1.013,4
02:30 17,6 15,4 17,1 87,1 0,8 109 - 0,0 0 1.013,4
02:29 17,7 15,5 17,2 87,1 1,2 113 - 0,0 0 1.013,4
02:28 17,7 15,4 17,2 86,5 1,2 113 - 0,0 0 1.013,4
02:27 17,7 15,3 17,1 85,9 1,2 109 - 0,0 0 1.013,4
02:26 17,7 15,5 17,2 86,8 0,4 106 - 0,0 0 1.013,4
02:25 17,7 15,5 17,2 87,1 0,5 111 - 0,0 0 1.013,4
02:24 17,7 15,5 17,2 87,1 0,5 285 - 0,0 0 1.013,4
02:23 17,7 15,5 17,2 86,9 0,2 294 - 0,0 0 1.013,4
02:22 17,7 15,3 17,1 85,9 0,6 288 - 0,0 0 1.013,4
02:21 17,7 15,3 17,1 85,9 0,4 284 - 0,0 0 1.013,4
02:20 17,8 15,4 17,2 85,9 0,3 306 - 0,0 0 1.013,4
02:19 17,8 15,4 17,2 85,9 0,2 332 - 0,0 0 1.013,4
02:18 17,8 15,4 17,2 85,9 0,4 349 - 0,0 0 1.013,3
02:17 17,8 15,4 17,2 85,9 0,3 347 - 0,0 0 1.013,3
02:16 17,8 15,4 17,2 85,9 0,1 339 - 0,0 0 1.013,3
02:15 17,8 15,4 17,2 85,9 0,7 341 - 0,0 0 1.013,3
02:14 17,8 15,4 17,2 85,9 0,9 345 - 0,0 0 1.013,3
02:13 17,8 15,4 17,2 85,9 0,6 348 - 0,0 0 1.013,4
02:12 17,8 15,4 17,2 85,9 0,1 351 - 0,0 0 1.013,4
02:11 17,8 15,4 17,2 85,9 0,2 351 - 0,0 0 1.013,4
02:10 17,8 15,4 17,2 85,9 0,4 353 - 0,0 0 1.013,4
02:09 17,9 15,5 17,3 85,9 0,5 8 - 0,0 0 1.013,4
02:08 17,9 15,5 17,3 85,9 0,3 0 - 0,0 0 1.013,4
02:07 17,9 15,5 17,3 85,9 0,3 280 - 0,0 0 1.013,4
02:06 17,9 15,5 17,3 85,9 0,5 150 - 0,0 0 1.013,4
02:05 17,9 15,5 17,3 85,9 0,4 129 - 0,0 0 1.013,4
02:04 17,9 15,5 17,3 85,9 0,2 130 - 0,0 0 1.013,4
02:03 17,9 15,5 17,3 85,9 0,8 136 - 0,0 0 1.013,4
02:02 17,9 15,5 17,3 85,9 1,2 135 - 0,0 0 1.013,5
02:01 17,9 15,5 17,3 85,9 0,8 134 - 0,0 0 1.013,4
02:00 17,9 15,5 17,3 85,9 0,3 152 - 0,0 0 1.013,4
 
01:59 17,9 15,5 17,3 85,9 0,5 190 - 0,0 0 1.013,5
01:58 17,9 15,5 17,3 85,9 0,3 203 - 0,0 0 1.013,4
01:57 17,9 15,5 17,3 85,9 0,7 192 - 0,0 0 1.013,4
01:56 17,9 15,5 17,3 85,9 0,7 174 - 0,0 0 1.013,5
01:55 17,9 15,5 17,3 85,9 0,7 171 - 0,0 0 1.013,5
01:54 17,9 15,3 17,2 85,0 0,8 176 - 0,0 0 1.013,5
01:53 17,9 15,5 17,3 85,9 0,5 181 - 0,0 0 1.013,5
01:52 17,9 15,5 17,3 85,9 0,7 188 - 0,0 0 1.013,5
01:51 17,9 15,3 17,2 85,0 0,7 196 - 0,0 0 1.013,5
01:50 17,9 15,3 17,1 84,8 0,5 203 - 0,0 0 1.013,5
01:49 18,0 15,4 17,2 84,8 0,5 204 - 0,0 0 1.013,5
01:48 18,0 15,4 17,2 84,8 0,5 202 - 0,0 0 1.013,4
01:47 18,0 15,4 17,2 84,8 0,8 208 - 0,0 0 1.013,4
01:46 17,9 15,3 17,1 84,8 1,4 224 - 0,0 0 1.013,3
01:45 18,0 15,4 17,2 84,8 0,9 232 - 0,0 0 1.013,3
01:44 18,0 15,6 17,4 85,7 0,8 231 - 0,0 0 1.013,3
01:43 18,0 15,6 17,4 85,9 1,0 225 - 0,0 0 1.013,3
01:42 18,0 15,6 17,4 85,7 0,9 208 - 0,0 0 1.013,3
01:41 18,0 15,4 17,2 84,8 0,8 182 - 0,0 0 1.013,3
01:40 18,0 15,4 17,2 84,8 0,9 164 - 0,0 0 1.013,3
01:39 18,1 15,5 17,3 84,8 0,8 149 - 0,0 0 1.013,3
01:38 18,1 15,5 17,3 84,8 1,1 139 - 0,0 0 1.013,3
01:37 18,1 15,7 17,5 85,9 1,4 132 - 0,0 0 1.013,3
01:36 18,1 15,7 17,5 85,9 1,6 126 - 0,0 0 1.013,4
01:35 18,1 15,7 17,5 85,9 1,8 120 - 0,0 0 1.013,3
01:34 18,1 15,7 17,5 85,9 1,8 111 - 0,0 0 1.013,4
01:33 18,1 15,7 17,5 85,9 1,2 98 - 0,0 0 1.013,3
01:32 18,1 15,7 17,5 85,9 0,3 87 - 0,0 0 1.013,3
01:31 18,1 15,7 17,5 85,9 0,7 52 - 0,0 0 1.013,3
01:30 18,1 15,7 17,5 85,9 0,6 318 - 0,0 0 1.013,3
01:29 18,1 15,7 17,5 85,9 0,9 311 - 0,0 0 1.013,3
01:28 18,1 15,7 17,5 85,9 1,7 306 - 0,0 0 1.013,3
01:27 18,1 15,7 17,5 85,9 1,3 285 - 0,0 0 1.013,4
01:26 18,1 15,7 17,5 85,9 0,3 256 - 0,0 0 1.013,4
01:25 18,1 15,7 17,5 85,9 0,7 230 - 0,0 0 1.013,4
01:24 18,1 15,7 17,5 85,9 1,3 203 - 0,0 0 1.013,4
01:23 18,1 15,7 17,5 85,9 1,4 189 - 0,0 0 1.013,3
01:22 18,2 15,8 17,6 85,9 1,0 193 - 0,0 0 1.013,4
01:21 18,2 15,8 17,6 85,9 0,3 193 - 0,0 0 1.013,4
01:20 18,2 15,8 17,6 85,9 0,3 144 - 0,0 0 1.013,4
01:19 18,2 15,8 17,6 85,9 0,3 104 - 0,0 0 1.013,4
01:18 18,2 15,8 17,6 85,9 0,8 100 - 0,0 0 1.013,4
01:17 18,2 15,8 17,6 85,9 1,5 106 - 0,0 0 1.013,4
01:16 18,2 15,8 17,6 85,9 0,6 114 - 0,0 0 1.013,4
01:15 18,2 15,8 17,6 85,9 0,3 115 - 0,0 0 1.013,4
01:14 18,2 15,8 17,6 85,9 0,6 113 - 0,0 0 1.013,4
01:13 18,2 15,8 17,6 85,9 1,4 111 - 0,0 0 1.013,4
01:12 18,3 15,9 17,7 85,9 1,5 111 - 0,0 0 1.013,4
01:11 18,3 15,9 17,7 85,9 1,4 111 - 0,0 0 1.013,4
01:10 18,3 15,9 17,7 85,9 1,2 109 - 0,0 0 1.013,4
01:09 18,3 15,9 17,7 85,9 1,1 107 - 0,0 0 1.013,4
01:08 18,3 15,9 17,7 85,9 1,1 106 - 0,0 0 1.013,3
01:07 18,3 15,9 17,7 85,9 1,3 108 - 0,0 0 1.013,3
01:06 18,3 15,9 17,7 85,9 1,6 111 - 0,0 0 1.013,3
01:05 18,3 15,8 17,6 85,4 2,0 112 - 0,0 0 1.013,4
01:04 18,3 15,8 17,6 85,6 1,9 115 - 0,0 0 1.013,4
01:03 18,4 16,0 17,8 85,9 1,6 122 - 0,0 0 1.013,4
01:02 18,4 16,0 17,8 85,9 1,3 134 - 0,0 0 1.013,4
01:01 18,4 16,0 17,8 85,9 0,8 143 - 0,0 0 1.013,4
01:00 18,4 16,0 17,8 85,9 0,9 142 - 0,0 0 1.013,4
 
00:59 18,4 16,0 17,8 85,9 0,7 135 - 0,0 0 1.013,4
00:58 18,4 15,9 17,7 85,2 0,7 128 - 0,0 0 1.013,5
00:57 18,5 15,9 17,7 84,8 1,2 117 - 0,0 0 1.013,5
00:56 18,5 15,9 17,7 84,8 1,6 105 - 0,0 0 1.013,5
00:55 18,5 15,9 17,7 84,8 1,7 98 - 0,0 0 1.013,5
00:53 18,6 16,0 17,8 84,8 1,3 99 - 0,0 0 1.013,5
00:52 18,6 16,0 17,8 84,8 1,2 99 - 0,0 0 1.013,5
00:51 18,6 16,0 17,8 84,8 1,4 99 - 0,0 0 1.013,5
00:50 18,6 16,0 17,8 84,8 1,5 101 - 0,0 0 1.013,5
00:49 18,6 16,0 17,8 84,8 1,1 107 - 0,0 0 1.013,5
00:48 18,6 16,0 17,8 84,8 0,8 113 - 0,0 0 1.013,5
00:47 18,6 16,0 17,8 84,8 0,9 115 - 0,0 0 1.013,5
00:46 18,7 16,1 17,9 84,8 0,8 118 - 0,0 0 1.013,5
00:45 18,7 16,1 17,9 84,8 0,8 123 - 0,0 0 1.013,5
00:44 18,7 16,1 17,9 84,8 0,7 128 - 0,0 0 1.013,5
00:43 18,7 16,1 17,9 84,8 1,0 130 - 0,0 0 1.013,5
00:42 18,7 16,0 17,9 84,2 1,2 133 - 0,0 0 1.013,5
00:41 18,7 15,9 17,8 83,6 1,4 134 - 0,0 0 1.013,5
00:40 18,8 16,0 17,9 83,6 1,4 131 - 0,0 0 1.013,4
00:39 18,8 16,0 17,9 83,6 1,3 126 - 0,0 0 1.013,5
00:38 18,8 16,0 17,9 83,6 1,3 120 - 0,0 0 1.013,5
00:37 18,8 16,0 17,9 83,6 1,5 116 - 0,0 0 1.013,4
00:36 18,8 16,0 17,9 83,6 1,5 112 - 0,0 0 1.013,4
00:35 18,8 16,0 17,9 83,6 1,4 109 - 0,0 0 1.013,5
00:34 18,7 15,9 17,8 83,6 1,7 109 - 0,0 0 1.013,5
00:33 18,7 15,9 17,8 83,6 1,9 109 - 0,0 0 1.013,5
00:32 18,8 16,0 17,9 83,6 2,2 109 - 0,0 0 1.013,5
00:31 18,8 16,0 17,9 83,6 2,1 108 - 0,0 0 1.013,5
00:30 18,8 16,0 17,9 83,6 1,7 105 - 0,0 0 1.013,5
00:29 18,8 16,0 17,9 83,6 1,5 103 - 0,0 0 1.013,5
00:28 18,8 16,0 17,9 83,6 2,0 100 - 0,0 0 1.013,5
00:27 18,8 16,0 17,9 83,6 2,3 98 - 0,0 0 1.013,5
00:26 18,8 16,0 17,9 83,6 2,3 97 - 0,0 0 1.013,5
00:25 18,8 16,0 17,9 83,6 2,0 97 - 0,0 0 1.013,5
00:24 18,8 16,0 17,9 83,6 1,9 97 - 0,0 0 1.013,5
00:23 18,8 16,0 17,9 83,6 2,1 97 - 0,0 0 1.013,5
00:22 18,8 16,0 17,9 83,6 2,4 98 - 0,0 0 1.013,5
00:21 18,9 16,1 18,0 83,6 2,2 99 - 0,0 0 1.013,5
00:20 18,9 16,1 18,0 83,6 1,9 100 - 0,0 0 1.013,5
00:19 18,9 16,1 18,0 83,6 1,8 101 - 0,0 0 1.013,5
00:18 18,9 16,1 18,0 83,6 2,0 101 - 0,0 0 1.013,5
00:17 18,9 16,1 18,0 83,6 1,8 103 - 0,0 0 1.013,5
00:16 18,9 16,2 18,1 84,5 1,4 103 - 0,0 0 1.013,5
00:15 18,9 16,3 18,2 84,8 1,2 104 - 0,0 0 1.013,5
00:14 18,9 16,3 18,2 84,8 1,4 104 - 0,0 0 1.013,5
00:13 18,9 16,3 18,2 84,8 1,6 104 - 0,0 0 1.013,4
00:12 18,9 16,3 18,2 84,8 1,6 104 - 0,0 0 1.013,4
00:11 18,8 16,0 17,9 83,9 1,8 102 - 0,0 0 1.013,4
00:10 18,9 16,1 18,0 83,6 2,1 101 - 0,0 0 1.013,5
00:09 18,9 16,1 18,0 83,6 2,2 99 - 0,0 0 1.013,5
00:08 18,9 16,1 18,0 83,6 2,3 98 - 0,0 0 1.013,5
00:07 18,9 16,1 18,0 83,6 2,5 96 - 0,0 0 1.013,5
00:06 18,9 16,1 18,0 83,6 2,6 93 - 0,0 0 1.013,5
00:05 18,9 16,1 18,0 83,6 2,5 92 - 0,0 0 1.013,4
00:04 18,9 16,1 18,0 83,6 2,2 91 - 0,0 0 1.013,4
00:03 19,0 16,2 18,1 83,6 2,1 91 - 0,0 0 1.013,5
00:02 19,0 16,2 18,1 83,6 2,1 91 - 0,0 0 1.013,5
00:01 19,1 16,3 18,2 83,6 2,1 92 - 0,0 0 1.013,4
00:00 20,2 17,3 19,3 83,6 2,2 94 - 0,0 0 1.013,4
 
23:59 19,1 16,3 18,2 83,6 2,3 94 - 0,0 0 1.013,4
23:58 19,1 16,3 18,2 83,6 2,2 95 - 0,0 0 1.013,4
23:57 19,1 16,3 18,2 83,6 2,2 94 - 0,0 0 1.013,4
23:56 19,1 16,3 18,2 83,6 2,0 94 - 0,0 0 1.013,4
23:55 19,1 16,3 18,2 83,6 1,6 94 - 0,0 0 1.013,4
23:54 19,2 16,4 18,3 83,6 1,5 94 - 0,0 0 1.013,4
23:53 19,2 16,4 18,3 83,6 1,7 95 - 0,0 0 1.013,4
23:52 19,2 16,4 18,3 83,6 1,9 96 - 0,0 0 1.013,4
23:51 19,2 16,4 18,3 83,6 2,1 98 - 0,0 0 1.013,4
23:50 19,2 16,4 18,3 83,6 2,1 99 - 0,0 0 1.013,4
23:49 19,2 16,4 18,3 83,6 2,3 100 - 0,0 0 1.013,4
23:48 19,2 16,4 18,3 83,6 2,4 101 - 0,0 0 1.013,3
23:47 19,2 16,4 18,3 83,6 2,5 101 - 0,0 0 1.013,3
23:46 19,2 16,4 18,3 83,6 2,4 103 - 0,0 0 1.013,3
23:45 19,3 16,5 18,4 83,6 2,1 89 - 0,0 0 1.013,3
23:44 19,3 16,5 18,4 83,6 2,1 103 - 0,0 0 1.013,3
23:43 19,3 16,5 18,4 83,6 1,7 100 - 0,0 0 1.013,3
23:42 19,3 16,5 18,4 83,6 2,0 101 - 0,0 0 1.013,3
23:41 19,3 16,5 18,4 83,6 2,4 78 - 0,0 0 1.013,3
23:40 19,3 16,5 18,4 83,6 1,7 97 - 0,0 0 1.013,3
23:39 19,3 16,5 18,4 83,6 1,8 103 - 0,0 0 1.013,2
23:38 19,3 16,5 18,4 83,6 2,0 91 - 0,0 0 1.013,2
23:37 19,3 16,5 18,4 83,6 2,6 74 - 0,0 0 1.013,2
23:36 19,4 16,5 18,5 83,6 2,1 93 - 0,0 0 1.013,3
23:35 19,4 16,5 18,5 83,6 1,6 92 - 0,0 0 1.013,2
23:34 19,4 16,5 18,5 83,5 1,6 67 - 0,0 0 1.013,2
23:33 19,4 16,4 18,4 82,8 1,9 68 - 0,0 0 1.013,2
23:32 19,5 16,6 18,5 83,1 1,4 83 - 0,0 0 1.013,2